Time,TemperatureF,DewpointF,PressureIn,WindDirection,WindDirectionDegrees,WindSpeedMPH,WindSpeedGustMPH,Humidity,HourlyPrecipIn,Conditions,Clouds,dailyrainin,SoftwareType,DateUTC
2013-07-26 00:00:00,60.7,59.0,30.06,SE,128,0.0,0.0,94,0.00,,,0.00,Wunderground v.1.15,2013-07-26 04:00:00,
2013-07-26 00:01:00,60.7,59.0,30.06,SE,128,0.0,0.0,94,0.00,,,0.00,Wunderground v.1.15,2013-07-26 04:01:00,
2013-07-26 00:02:00,60.7,59.0,30.06,SE,128,0.0,0.0,94,0.00,,,0.00,Wunderground v.1.15,2013-07-26 04:02:00,
2013-07-26 00:04:00,60.7,59.0,30.06,SE,128,0.0,0.0,94,0.00,,,0.00,Wunderground v.1.15,2013-07-26 04:04:00,
2013-07-26 00:05:00,60.7,59.0,30.06,SE,128,0.0,0.0,94,0.00,,,0.00,Wunderground v.1.15,2013-07-26 04:05:00,
2013-07-26 00:09:00,60.7,59.0,30.06,SE,128,0.0,0.0,94,0.00,,,0.00,Wunderground v.1.15,2013-07-26 04:09:00,
2013-07-26 00:10:00,60.7,59.0,30.06,SE,128,0.0,0.0,94,0.00,,,0.00,Wunderground v.1.15,2013-07-26 04:10:00,
2013-07-26 00:15:00,60.7,59.0,30.06,SE,128,0.0,0.0,94,0.00,,,0.00,Wunderground v.1.15,2013-07-26 04:15:00,
2013-07-26 00:16:00,60.7,59.0,30.06,SE,128,0.0,0.0,94,0.00,,,0.00,Wunderground v.1.15,2013-07-26 04:16:00,
2013-07-26 00:17:00,60.8,59.1,30.06,SE,128,0.0,0.0,94,0.00,,,0.00,Wunderground v.1.15,2013-07-26 04:17:00,
2013-07-26 00:18:00,60.8,59.1,30.06,SE,128,0.0,0.0,94,0.00,,,0.00,Wunderground v.1.15,2013-07-26 04:18:00,
2013-07-26 00:21:00,60.9,59.2,30.06,SE,128,0.0,0.0,94,0.00,,,0.00,Wunderground v.1.15,2013-07-26 04:21:00,
2013-07-26 00:22:00,60.9,59.2,30.06,SE,128,0.0,0.0,94,0.00,,,0.00,Wunderground v.1.15,2013-07-26 04:22:00,
2013-07-26 00:23:00,60.9,59.2,30.06,SE,128,0.0,0.0,94,0.00,,,0.00,Wunderground v.1.15,2013-07-26 04:23:00,
2013-07-26 00:24:00,60.9,59.2,30.06,SE,128,0.0,0.0,94,0.00,,,0.00,Wunderground v.1.15,2013-07-26 04:24:00,
2013-07-26 00:26:00,60.9,59.2,30.06,SE,128,0.0,0.0,94,0.00,,,0.00,Wunderground v.1.15,2013-07-26 04:26:00,
2013-07-26 00:29:00,61.1,59.4,30.06,SE,128,0.0,0.0,94,0.00,,,0.00,Wunderground v.1.15,2013-07-26 04:29:00,
2013-07-26 00:31:00,61.1,59.4,30.06,SE,128,0.0,0.0,94,0.00,,,0.00,Wunderground v.1.15,2013-07-26 04:31:00,
2013-07-26 00:35:00,61.3,59.3,30.06,SE,128,0.0,0.0,93,0.00,,,0.00,Wunderground v.1.15,2013-07-26 04:35:00,
2013-07-26 00:36:00,61.3,59.3,30.06,SE,128,0.0,0.0,93,0.00,,,0.00,Wunderground v.1.15,2013-07-26 04:36:00,
2013-07-26 00:38:00,61.4,59.4,30.06,SE,128,0.0,0.0,93,0.00,,,0.00,Wunderground v.1.15,2013-07-26 04:38:00,
2013-07-26 00:39:00,61.4,59.4,30.06,SE,128,0.0,0.0,93,0.00,,,0.00,Wunderground v.1.15,2013-07-26 04:39:00,
2013-07-26 00:41:00,61.4,59.4,30.06,SE,128,0.0,0.0,93,0.00,,,0.00,Wunderground v.1.15,2013-07-26 04:41:00,
2013-07-26 00:42:00,61.4,59.4,30.06,SE,128,0.0,0.0,93,0.00,,,0.00,Wunderground v.1.15,2013-07-26 04:42:00,
2013-07-26 00:44:00,61.4,59.4,30.06,SE,128,0.0,1.0,93,0.00,,,0.00,Wunderground v.1.15,2013-07-26 04:44:00,
2013-07-26 00:45:00,61.4,59.4,30.06,SE,128,0.0,1.0,93,0.00,,,0.00,Wunderground v.1.15,2013-07-26 04:45:00,
2013-07-26 00:47:00,61.4,59.4,30.06,SE,128,0.0,1.0,93,0.00,,,0.00,Wunderground v.1.15,2013-07-26 04:47:00,
2013-07-26 00:51:00,61.5,59.5,30.06,SE,128,0.0,1.0,93,0.00,,,0.00,Wunderground v.1.15,2013-07-26 04:51:00,
2013-07-26 00:52:00,61.6,59.6,30.06,SE,128,0.0,1.0,93,0.00,,,0.00,Wunderground v.1.15,2013-07-26 04:52:00,
2013-07-26 00:55:00,61.6,59.3,30.06,SE,128,0.0,1.0,92,0.00,,,0.00,Wunderground v.1.15,2013-07-26 04:55:00,
2013-07-26 00:57:00,61.6,59.3,30.06,SE,128,0.0,1.0,92,0.00,,,0.00,Wunderground v.1.15,2013-07-26 04:57:00,
2013-07-26 00:58:00,61.7,59.4,30.06,SE,128,0.0,1.0,92,0.00,,,0.00,Wunderground v.1.15,2013-07-26 04:58:00,
2013-07-26 01:01:00,61.8,59.5,30.06,SE,128,0.0,1.0,92,0.00,,,0.00,Wunderground v.1.15,2013-07-26 05:01:00,
2013-07-26 01:03:00,61.8,59.5,30.06,SE,128,0.0,1.0,92,0.00,,,0.00,Wunderground v.1.15,2013-07-26 05:03:00,
2013-07-26 01:06:00,62.0,59.6,30.06,SE,129,0.0,1.0,92,0.00,,,0.00,Wunderground v.1.15,2013-07-26 05:06:00,
2013-07-26 01:07:00,62.0,59.6,30.06,SE,129,0.0,1.0,92,0.00,,,0.00,Wunderground v.1.15,2013-07-26 05:07:00,
2013-07-26 01:11:00,62.2,59.8,30.06,SE,129,0.0,1.0,92,0.00,,,0.00,Wunderground v.1.15,2013-07-26 05:11:00,
2013-07-26 01:12:00,62.2,59.8,30.06,SE,129,0.0,1.0,92,0.00,,,0.00,Wunderground v.1.15,2013-07-26 05:12:00,
2013-07-26 01:14:00,62.2,59.8,30.06,SE,129,0.0,1.0,92,0.00,,,0.00,Wunderground v.1.15,2013-07-26 05:14:00,
2013-07-26 01:16:00,62.2,59.8,30.06,SE,129,0.0,1.0,92,0.00,,,0.00,Wunderground v.1.15,2013-07-26 05:16:00,
2013-07-26 01:17:00,62.3,59.9,30.06,SE,129,0.0,1.0,92,0.00,,,0.00,Wunderground v.1.15,2013-07-26 05:17:00,
2013-07-26 01:19:00,62.3,59.9,30.06,SE,129,0.0,1.0,92,0.00,,,0.00,Wunderground v.1.15,2013-07-26 05:19:00,
2013-07-26 01:20:00,62.3,59.9,30.06,SE,129,0.0,1.0,92,0.00,,,0.00,Wunderground v.1.15,2013-07-26 05:20:00,
2013-07-26 01:21:00,62.4,60.0,30.06,SE,129,0.0,1.0,92,0.00,,,0.00,Wunderground v.1.15,2013-07-26 05:21:00,
2013-07-26 01:22:00,62.4,60.0,30.06,SE,129,0.0,1.0,92,0.00,,,0.00,Wunderground v.1.15,2013-07-26 05:22:00,
2013-07-26 01:24:00,62.4,60.0,30.06,SE,129,0.0,1.0,92,0.00,,,0.00,Wunderground v.1.15,2013-07-26 05:24:00,
2013-07-26 01:25:00,62.4,60.0,30.06,SE,129,0.0,1.0,92,0.00,,,0.00,Wunderground v.1.15,2013-07-26 05:25:00,
2013-07-26 01:26:00,62.5,60.1,30.06,SE,129,0.0,1.0,92,0.00,,,0.00,Wunderground v.1.15,2013-07-26 05:26:00,
2013-07-26 01:28:00,62.5,60.1,30.06,SE,129,0.0,1.0,92,0.00,,,0.00,Wunderground v.1.15,2013-07-26 05:28:00,
2013-07-26 01:31:00,62.5,59.8,30.06,SE,129,0.0,1.0,91,0.00,,,0.00,Wunderground v.1.15,2013-07-26 05:31:00,
2013-07-26 01:33:00,62.5,59.8,30.06,SE,129,0.0,1.0,91,0.00,,,0.00,Wunderground v.1.15,2013-07-26 05:33:00,
2013-07-26 01:34:00,62.5,59.8,30.06,SE,129,0.0,1.0,91,0.00,,,0.00,Wunderground v.1.15,2013-07-26 05:34:00,
2013-07-26 01:35:00,62.5,59.8,30.06,SE,129,0.0,1.0,91,0.00,,,0.00,Wunderground v.1.15,2013-07-26 05:35:00,
2013-07-26 01:36:00,62.5,59.8,30.06,SE,129,0.0,1.0,91,0.00,,,0.00,Wunderground v.1.15,2013-07-26 05:36:00,
2013-07-26 01:38:00,62.5,59.8,30.06,SE,129,0.0,1.0,91,0.00,,,0.00,Wunderground v.1.15,2013-07-26 05:38:00,
2013-07-26 01:42:00,62.5,60.1,30.06,SE,129,0.0,1.0,92,0.00,,,0.00,Wunderground v.1.15,2013-07-26 05:42:00,
2013-07-26 01:44:00,62.5,59.8,30.06,SE,129,0.0,1.0,91,0.00,,,0.00,Wunderground v.1.15,2013-07-26 05:44:00,
2013-07-26 01:45:00,62.5,60.1,30.06,SE,129,0.0,1.0,92,0.00,,,0.00,Wunderground v.1.15,2013-07-26 05:45:00,
2013-07-26 01:46:00,62.4,60.0,30.06,SE,129,0.0,1.0,92,0.00,,,0.00,Wunderground v.1.15,2013-07-26 05:46:00,
2013-07-26 01:47:00,62.4,60.0,30.06,SE,129,0.0,1.0,92,0.00,,,0.00,Wunderground v.1.15,2013-07-26 05:47:00,
2013-07-26 01:49:00,62.3,59.9,30.06,SE,129,0.0,1.0,92,0.00,,,0.00,Wunderground v.1.15,2013-07-26 05:49:00,
2013-07-26 01:53:00,62.3,59.9,30.05,SE,129,0.0,2.0,92,0.00,,,0.00,Wunderground v.1.15,2013-07-26 05:53:00,
2013-07-26 01:55:00,62.3,59.9,30.05,SE,129,0.0,2.0,92,0.00,,,0.00,Wunderground v.1.15,2013-07-26 05:55:00,
2013-07-26 01:56:00,62.4,60.0,30.05,SE,129,0.0,2.0,92,0.00,,,0.00,Wunderground v.1.15,2013-07-26 05:56:00,
2013-07-26 01:59:00,62.3,59.9,30.05,SE,129,1.0,2.0,92,0.00,,,0.00,Wunderground v.1.15,2013-07-26 05:59:00,
2013-07-26 02:00:00,62.3,59.9,30.05,SE,129,1.0,1.0,92,0.00,,,0.00,Wunderground v.1.15,2013-07-26 06:00:00,
2013-07-26 02:02:00,62.3,59.9,30.05,SE,129,1.0,2.0,92,0.00,,,0.00,Wunderground v.1.15,2013-07-26 06:02:00,
2013-07-26 02:06:00,62.3,59.9,30.05,SE,128,1.0,2.0,92,0.00,,,0.00,Wunderground v.1.15,2013-07-26 06:06:00,
2013-07-26 02:07:00,62.3,59.9,30.05,SE,128,0.0,2.0,92,0.00,,,0.00,Wunderground v.1.15,2013-07-26 06:07:00,
2013-07-26 02:08:00,62.3,59.9,30.05,SE,128,0.0,2.0,92,0.00,,,0.00,Wunderground v.1.15,2013-07-26 06:08:00,
2013-07-26 02:10:00,62.2,59.8,30.05,SE,128,0.0,0.0,92,0.00,,,0.00,Wunderground v.1.15,2013-07-26 06:10:00,
2013-07-26 02:13:00,62.2,59.8,30.05,SE,128,0.0,2.0,92,0.00,,,0.00,Wunderground v.1.15,2013-07-26 06:13:00,
2013-07-26 02:16:00,62.1,59.7,30.05,SE,128,0.0,2.0,92,0.00,,,0.00,Wunderground v.1.15,2013-07-26 06:16:00,
2013-07-26 02:17:00,62.1,59.7,30.05,SE,128,0.0,2.0,92,0.00,,,0.00,Wunderground v.1.15,2013-07-26 06:17:00,
2013-07-26 02:18:00,62.0,59.6,30.05,SE,128,0.0,2.0,92,0.00,,,0.00,Wunderground v.1.15,2013-07-26 06:18:00,
2013-07-26 02:20:00,62.0,59.6,30.05,SE,128,0.0,2.0,92,0.00,,,0.00,Wunderground v.1.15,2013-07-26 06:20:00,
2013-07-26 02:21:00,61.9,59.5,30.05,SE,128,0.0,2.0,92,0.00,,,0.00,Wunderground v.1.15,2013-07-26 06:21:00,
2013-07-26 02:22:00,61.8,59.5,30.05,SE,128,0.0,2.0,92,0.00,,,0.00,Wunderground v.1.15,2013-07-26 06:22:00,
2013-07-26 02:24:00,61.8,59.5,30.05,SE,128,0.0,2.0,92,0.00,,,0.00,Wunderground v.1.15,2013-07-26 06:24:00,
2013-07-26 02:25:00,61.7,59.4,30.05,SE,128,0.0,2.0,92,0.00,,,0.00,Wunderground v.1.15,2013-07-26 06:25:00,
2013-07-26 02:27:00,61.6,59.3,30.05,SE,128,0.0,2.0,92,0.00,,,0.00,Wunderground v.1.15,2013-07-26 06:27:00,
2013-07-26 02:28:00,61.5,59.2,30.05,SE,128,0.0,2.0,92,0.00,,,0.00,Wunderground v.1.15,2013-07-26 06:28:00,
2013-07-26 02:31:00,61.3,59.0,30.05,SE,128,0.0,2.0,92,0.00,,,0.00,Wunderground v.1.15,2013-07-26 06:31:00,
2013-07-26 02:32:00,61.3,59.0,30.05,SE,128,0.0,2.0,92,0.00,,,0.00,Wunderground v.1.15,2013-07-26 06:32:00,
2013-07-26 02:33:00,61.2,58.9,30.05,SE,128,0.0,2.0,92,0.00,,,0.00,Wunderground v.1.15,2013-07-26 06:33:00,
2013-07-26 02:35:00,61.1,59.1,30.05,SE,128,0.0,2.0,93,0.00,,,0.00,Wunderground v.1.15,2013-07-26 06:35:00,
2013-07-26 02:36:00,61.1,59.1,30.05,SE,128,0.0,2.0,93,0.00,,,0.00,Wunderground v.1.15,2013-07-26 06:36:00,
2013-07-26 02:39:00,61.0,59.0,30.04,SE,128,0.0,2.0,93,0.00,,,0.00,Wunderground v.1.15,2013-07-26 06:39:00,
2013-07-26 02:40:00,60.9,58.9,30.04,SE,128,0.0,2.0,93,0.00,,,0.00,Wunderground v.1.15,2013-07-26 06:40:00,
2013-07-26 02:42:00,60.9,58.9,30.04,SE,128,0.0,2.0,93,0.00,,,0.00,Wunderground v.1.15,2013-07-26 06:42:00,
2013-07-26 02:43:00,60.9,58.9,30.04,SE,128,0.0,2.0,93,0.00,,,0.00,Wunderground v.1.15,2013-07-26 06:43:00,
2013-07-26 02:45:00,60.8,58.8,30.04,SE,128,0.0,2.0,93,0.00,,,0.00,Wunderground v.1.15,2013-07-26 06:45:00,
2013-07-26 02:48:00,60.8,58.8,30.04,SE,128,0.0,2.0,93,0.00,,,0.00,Wunderground v.1.15,2013-07-26 06:48:00,
2013-07-26 02:51:00,60.6,58.6,30.04,SE,128,0.0,0.0,93,0.00,,,0.00,Wunderground v.1.15,2013-07-26 06:51:00,
2013-07-26 02:52:00,60.6,58.6,30.04,SE,128,0.0,0.0,93,0.00,,,0.00,Wunderground v.1.15,2013-07-26 06:52:00,
2013-07-26 02:57:00,60.5,58.5,30.05,SE,128,0.0,0.0,93,0.00,,,0.00,Wunderground v.1.15,2013-07-26 06:57:00,
2013-07-26 02:58:00,60.4,58.4,30.04,SE,128,0.0,0.0,93,0.00,,,0.00,Wunderground v.1.15,2013-07-26 06:58:00,
2013-07-26 02:59:00,60.3,58.3,30.04,SE,128,0.0,0.0,93,0.00,,,0.00,Wunderground v.1.15,2013-07-26 06:59:00,
2013-07-26 03:01:00,60.2,58.2,30.05,SE,128,0.0,0.0,93,0.00,,,0.00,Wunderground v.1.15,2013-07-26 07:01:00,
2013-07-26 03:03:00,60.2,58.5,30.04,SE,128,0.0,0.0,94,0.00,,,0.00,Wunderground v.1.15,2013-07-26 07:03:00,
2013-07-26 03:06:00,60.0,58.3,30.04,SE,128,0.0,0.0,94,0.00,,,0.00,Wunderground v.1.15,2013-07-26 07:06:00,
2013-07-26 03:07:00,60.0,58.3,30.04,SE,128,0.0,0.0,94,0.00,,,0.00,Wunderground v.1.15,2013-07-26 07:07:00,
2013-07-26 03:08:00,60.0,58.3,30.04,SE,128,0.0,0.0,94,0.00,,,0.00,Wunderground v.1.15,2013-07-26 07:08:00,
2013-07-26 03:12:00,59.9,58.2,30.04,SE,128,0.0,0.0,94,0.00,,,0.00,Wunderground v.1.15,2013-07-26 07:12:00,
2013-07-26 03:13:00,59.9,58.2,30.04,SE,128,0.0,1.0,94,0.00,,,0.00,Wunderground v.1.15,2013-07-26 07:13:00,
2013-07-26 03:14:00,59.9,58.2,30.04,SE,128,0.0,1.0,94,0.00,,,0.00,Wunderground v.1.15,2013-07-26 07:14:00,
2013-07-26 03:15:00,59.9,58.2,30.04,SE,128,0.0,1.0,94,0.00,,,0.00,Wunderground v.1.15,2013-07-26 07:15:00,
2013-07-26 03:18:00,59.8,58.1,30.04,SE,128,0.0,1.0,94,0.00,,,0.00,Wunderground v.1.15,2013-07-26 07:18:00,
2013-07-26 03:20:00,59.9,58.2,30.04,SE,128,0.0,1.0,94,0.00,,,0.00,Wunderground v.1.15,2013-07-26 07:20:00,
2013-07-26 03:21:00,59.9,58.2,30.04,SE,128,0.0,1.0,94,0.00,,,0.00,Wunderground v.1.15,2013-07-26 07:21:00,
2013-07-26 03:22:00,59.9,58.2,30.04,SE,128,0.0,1.0,94,0.00,,,0.00,Wunderground v.1.15,2013-07-26 07:22:00,
2013-07-26 03:23:00,59.9,58.2,30.04,SE,128,0.0,1.0,94,0.00,,,0.00,Wunderground v.1.15,2013-07-26 07:23:00,
2013-07-26 03:26:00,59.8,58.1,30.04,SE,128,0.0,1.0,94,0.00,,,0.00,Wunderground v.1.15,2013-07-26 07:26:00,
2013-07-26 03:27:00,59.8,58.1,30.04,SE,128,0.0,1.0,94,0.00,,,0.00,Wunderground v.1.15,2013-07-26 07:27:00,
2013-07-26 03:28:00,59.8,58.1,30.04,SE,128,0.0,1.0,94,0.00,,,0.00,Wunderground v.1.15,2013-07-26 07:28:00,
2013-07-26 03:29:00,59.8,58.1,30.04,SE,128,0.0,1.0,94,0.00,,,0.00,Wunderground v.1.15,2013-07-26 07:29:00,
2013-07-26 03:32:00,59.8,58.1,30.04,SE,128,0.0,1.0,94,0.00,,,0.00,Wunderground v.1.15,2013-07-26 07:32:00,
2013-07-26 03:35:00,59.8,58.1,30.04,SE,128,0.0,1.0,94,0.00,,,0.00,Wunderground v.1.15,2013-07-26 07:35:00,
2013-07-26 03:36:00,59.8,58.1,30.04,SE,128,0.0,1.0,94,0.00,,,0.00,Wunderground v.1.15,2013-07-26 07:36:00,
2013-07-26 03:38:00,59.8,58.1,30.05,SE,128,0.0,1.0,94,0.00,,,0.00,Wunderground v.1.15,2013-07-26 07:38:00,
2013-07-26 03:41:00,59.7,58.3,30.05,SE,128,0.0,1.0,95,0.00,,,0.00,Wunderground v.1.15,2013-07-26 07:41:00,
2013-07-26 03:43:00,59.7,58.3,30.05,SE,128,0.0,1.0,95,0.00,,,0.00,Wunderground v.1.15,2013-07-26 07:43:00,
2013-07-26 03:47:00,59.7,58.3,30.05,SE,128,0.0,1.0,95,0.00,,,0.00,Wunderground v.1.15,2013-07-26 07:47:00,
2013-07-26 03:49:00,59.7,58.3,30.05,SE,128,0.0,1.0,95,0.00,,,0.00,Wunderground v.1.15,2013-07-26 07:49:00,
2013-07-26 03:50:00,59.7,58.3,30.05,SE,128,0.0,0.0,95,0.00,,,0.00,Wunderground v.1.15,2013-07-26 07:50:00,
2013-07-26 03:52:00,59.7,58.0,30.05,SE,128,0.0,0.0,94,0.00,,,0.00,Wunderground v.1.15,2013-07-26 07:52:00,
2013-07-26 03:55:00,59.6,57.9,30.04,SE,128,0.0,0.0,94,0.00,,,0.00,Wunderground v.1.15,2013-07-26 07:55:00,
2013-07-26 03:57:00,59.6,57.9,30.04,SE,128,0.0,0.0,94,0.00,,,0.00,Wunderground v.1.15,2013-07-26 07:57:00,
2013-07-26 03:58:00,59.6,57.9,30.04,SE,128,0.0,0.0,94,0.00,,,0.00,Wunderground v.1.15,2013-07-26 07:58:00,
2013-07-26 04:03:00,59.6,57.9,30.05,SE,128,0.0,0.0,94,0.00,,,0.00,Wunderground v.1.15,2013-07-26 08:03:00,
2013-07-26 04:04:00,59.6,57.9,30.05,SE,128,0.0,0.0,94,0.00,,,0.00,Wunderground v.1.15,2013-07-26 08:04:00,
2013-07-26 04:05:00,59.6,57.9,30.05,SE,128,0.0,0.0,94,0.00,,,0.00,Wunderground v.1.15,2013-07-26 08:05:00,
2013-07-26 04:06:00,59.6,57.9,30.04,SE,128,0.0,0.0,94,0.00,,,0.00,Wunderground v.1.15,2013-07-26 08:06:00,
2013-07-26 04:09:00,59.5,57.8,30.05,SE,128,0.0,0.0,94,0.00,,,0.00,Wunderground v.1.15,2013-07-26 08:09:00,
2013-07-26 04:10:00,59.5,57.8,30.05,SE,128,0.0,0.0,94,0.00,,,0.00,Wunderground v.1.15,2013-07-26 08:10:00,
2013-07-26 04:11:00,59.5,57.8,30.05,SE,128,0.0,0.0,94,0.00,,,0.00,Wunderground v.1.15,2013-07-26 08:11:00,
2013-07-26 04:14:00,59.5,57.8,30.05,SE,128,0.0,0.0,94,0.00,,,0.00,Wunderground v.1.15,2013-07-26 08:14:00,
2013-07-26 04:15:00,59.5,57.8,30.05,SE,128,0.0,0.0,94,0.00,,,0.00,Wunderground v.1.15,2013-07-26 08:15:00,
2013-07-26 04:17:00,59.5,57.8,30.05,SE,128,0.0,0.0,94,0.00,,,0.00,Wunderground v.1.15,2013-07-26 08:17:00,
2013-07-26 04:19:00,59.5,57.8,30.05,SE,128,0.0,0.0,94,0.00,,,0.00,Wunderground v.1.15,2013-07-26 08:19:00,
2013-07-26 04:20:00,59.6,57.6,30.05,SE,128,0.0,0.0,93,0.00,,,0.00,Wunderground v.1.15,2013-07-26 08:20:00,
2013-07-26 04:22:00,59.6,57.6,30.05,SE,128,0.0,0.0,93,0.00,,,0.00,Wunderground v.1.15,2013-07-26 08:22:00,
2013-07-26 04:24:00,59.6,57.6,30.05,SE,128,0.0,0.0,93,0.00,,,0.00,Wunderground v.1.15,2013-07-26 08:24:00,
2013-07-26 04:25:00,59.6,57.6,30.05,SE,128,0.0,0.0,93,0.00,,,0.00,Wunderground v.1.15,2013-07-26 08:25:00,
2013-07-26 04:26:00,59.6,57.6,30.05,SE,128,0.0,0.0,93,0.00,,,0.00,Wunderground v.1.15,2013-07-26 08:26:00,
2013-07-26 04:28:00,59.6,57.6,30.05,SE,128,0.0,0.0,93,0.00,,,0.00,Wunderground v.1.15,2013-07-26 08:28:00,
2013-07-26 04:30:00,59.6,57.6,30.05,SE,128,0.0,0.0,93,0.00,,,0.00,Wunderground v.1.15,2013-07-26 08:30:00,
2013-07-26 04:32:00,59.6,57.6,30.05,SE,128,0.0,0.0,93,0.00,,,0.00,Wunderground v.1.15,2013-07-26 08:32:00,
2013-07-26 04:33:00,59.6,57.6,30.05,SE,128,0.0,0.0,93,0.00,,,0.00,Wunderground v.1.15,2013-07-26 08:33:00,
2013-07-26 04:34:00,59.7,57.7,30.05,SE,128,0.0,0.0,93,0.00,,,0.00,Wunderground v.1.15,2013-07-26 08:34:00,
2013-07-26 04:35:00,59.7,57.7,30.05,SE,128,0.0,0.0,93,0.00,,,0.00,Wunderground v.1.15,2013-07-26 08:35:00,
2013-07-26 04:38:00,59.8,57.8,30.05,SE,128,0.0,0.0,93,0.00,,,0.00,Wunderground v.1.15,2013-07-26 08:38:00,
2013-07-26 04:39:00,59.8,57.8,30.05,SE,128,0.0,0.0,93,0.00,,,0.00,Wunderground v.1.15,2013-07-26 08:39:00,
2013-07-26 04:41:00,59.9,58.2,30.05,SE,128,0.0,0.0,94,0.00,,,0.00,Wunderground v.1.15,2013-07-26 08:41:00,
2013-07-26 04:42:00,59.9,58.2,30.06,SE,128,0.0,0.0,94,0.00,,,0.00,Wunderground v.1.15,2013-07-26 08:42:00,
2013-07-26 04:44:00,60.0,58.3,30.06,SE,128,0.0,0.0,94,0.00,,,0.00,Wunderground v.1.15,2013-07-26 08:44:00,
2013-07-26 04:45:00,60.0,58.3,30.06,SE,128,0.0,0.0,94,0.00,,,0.00,Wunderground v.1.15,2013-07-26 08:45:00,
2013-07-26 04:46:00,60.0,58.3,30.06,SE,128,0.0,0.0,94,0.00,,,0.00,Wunderground v.1.15,2013-07-26 08:46:00,
2013-07-26 04:47:00,60.0,58.3,30.06,SE,128,0.0,0.0,94,0.00,,,0.00,Wunderground v.1.15,2013-07-26 08:47:00,
2013-07-26 04:48:00,60.1,58.4,30.06,SE,128,0.0,0.0,94,0.00,,,0.00,Wunderground v.1.15,2013-07-26 08:48:00,
2013-07-26 04:49:00,60.1,58.4,30.06,SE,128,0.0,0.0,94,0.00,,,0.00,Wunderground v.1.15,2013-07-26 08:49:00,
2013-07-26 04:51:00,60.1,58.4,30.05,SE,128,0.0,0.0,94,0.00,,,0.00,Wunderground v.1.15,2013-07-26 08:51:00,
2013-07-26 04:52:00,60.2,58.5,30.05,SE,128,0.0,0.0,94,0.00,,,0.00,Wunderground v.1.15,2013-07-26 08:52:00,
2013-07-26 04:54:00,60.2,58.5,30.05,SE,128,0.0,0.0,94,0.00,,,0.00,Wunderground v.1.15,2013-07-26 08:54:00,
2013-07-26 04:55:00,60.2,58.5,30.06,SE,128,0.0,0.0,94,0.00,,,0.00,Wunderground v.1.15,2013-07-26 08:55:00,
2013-07-26 05:00:00,60.3,58.6,30.05,SE,128,0.0,0.0,94,0.00,,,0.00,Wunderground v.1.15,2013-07-26 09:00:00,
2013-07-26 05:01:00,60.4,58.7,30.05,SE,128,0.0,0.0,94,0.00,,,0.00,Wunderground v.1.15,2013-07-26 09:01:00,
2013-07-26 05:04:00,60.4,58.4,30.05,SE,128,0.0,0.0,93,0.00,,,0.00,Wunderground v.1.15,2013-07-26 09:04:00,
2013-07-26 05:05:00,60.4,58.4,30.05,SE,128,0.0,0.0,93,0.00,,,0.00,Wunderground v.1.15,2013-07-26 09:05:00,
2013-07-26 05:07:00,60.4,58.4,30.05,SE,128,0.0,0.0,93,0.00,,,0.00,Wunderground v.1.15,2013-07-26 09:07:00,
2013-07-26 05:10:00,60.4,58.4,30.05,SE,128,0.0,0.0,93,0.00,,,0.00,Wunderground v.1.15,2013-07-26 09:10:00,
2013-07-26 05:11:00,60.4,58.4,30.05,SE,128,0.0,0.0,93,0.00,,,0.00,Wunderground v.1.15,2013-07-26 09:11:00,
2013-07-26 05:12:00,60.4,58.4,30.05,SE,128,0.0,0.0,93,0.00,,,0.00,Wunderground v.1.15,2013-07-26 09:12:00,
2013-07-26 05:14:00,60.4,58.4,30.05,SE,128,0.0,0.0,93,0.00,,,0.00,Wunderground v.1.15,2013-07-26 09:14:00,
2013-07-26 05:16:00,60.4,58.4,30.05,ESE,108,0.0,0.0,93,0.00,,,0.00,Wunderground v.1.15,2013-07-26 09:16:00,
2013-07-26 05:18:00,60.4,58.4,30.06,ESE,108,0.0,0.0,93,0.00,,,0.00,Wunderground v.1.15,2013-07-26 09:18:00,
2013-07-26 05:19:00,60.4,58.4,30.06,ESE,108,0.0,0.0,93,0.00,,,0.00,Wunderground v.1.15,2013-07-26 09:19:00,
2013-07-26 05:22:00,60.4,58.4,30.05,ESE,108,0.0,0.0,93,0.00,,,0.00,Wunderground v.1.15,2013-07-26 09:22:00,
2013-07-26 05:23:00,60.4,58.4,30.05,ESE,108,0.0,0.0,93,0.00,,,0.00,Wunderground v.1.15,2013-07-26 09:23:00,
2013-07-26 05:24:00,60.4,58.4,30.05,ESE,108,0.0,0.0,93,0.00,,,0.00,Wunderground v.1.15,2013-07-26 09:24:00,
2013-07-26 05:25:00,60.4,58.4,30.05,ESE,108,0.0,0.0,93,0.00,,,0.00,Wunderground v.1.15,2013-07-26 09:25:00,
2013-07-26 05:28:00,60.4,58.7,30.06,ESE,108,0.0,0.0,94,0.00,,,0.00,Wunderground v.1.15,2013-07-26 09:28:00,
2013-07-26 05:31:00,60.4,58.7,30.06,ESE,108,0.0,0.0,94,0.00,,,0.00,Wunderground v.1.15,2013-07-26 09:31:00,
2013-07-26 05:33:00,60.3,58.6,30.05,ESE,108,0.0,0.0,94,0.00,,,0.00,Wunderground v.1.15,2013-07-26 09:33:00,
2013-07-26 05:35:00,60.2,58.5,30.05,ESE,108,0.0,0.0,94,0.00,,,0.00,Wunderground v.1.15,2013-07-26 09:35:00,
2013-07-26 05:37:00,60.2,58.5,30.05,ESE,108,0.0,0.0,94,0.00,,,0.00,Wunderground v.1.15,2013-07-26 09:37:00,
2013-07-26 05:38:00,60.0,58.3,30.05,ESE,107,0.0,0.0,94,0.00,,,0.00,Wunderground v.1.15,2013-07-26 09:38:00,
2013-07-26 05:39:00,60.0,58.3,30.05,ESE,108,0.0,0.0,94,0.00,,,0.00,Wunderground v.1.15,2013-07-26 09:39:00,
2013-07-26 05:41:00,60.0,58.3,30.05,ESE,108,0.0,0.0,94,0.00,,,0.00,Wunderground v.1.15,2013-07-26 09:41:00,
2013-07-26 05:43:00,59.9,58.2,30.06,ESE,107,0.0,1.0,94,0.00,,,0.00,Wunderground v.1.15,2013-07-26 09:43:00,
2013-07-26 05:44:00,59.9,58.2,30.06,ESE,108,0.0,1.0,94,0.00,,,0.00,Wunderground v.1.15,2013-07-26 09:44:00,
2013-07-26 05:45:00,59.9,58.2,30.06,ESE,108,0.0,1.0,94,0.00,,,0.00,Wunderground v.1.15,2013-07-26 09:45:00,
2013-07-26 05:46:00,59.9,58.2,30.06,ESE,108,0.0,1.0,94,0.00,,,0.00,Wunderground v.1.15,2013-07-26 09:46:00,
2013-07-26 05:49:00,59.9,58.2,30.06,ESE,108,0.0,1.0,94,0.00,,,0.00,Wunderground v.1.15,2013-07-26 09:49:00,
2013-07-26 05:51:00,59.9,58.2,30.05,ESE,107,0.0,1.0,94,0.00,,,0.00,Wunderground v.1.15,2013-07-26 09:51:00,
2013-07-26 05:54:00,59.8,58.1,30.06,ESE,108,0.0,1.0,94,0.00,,,0.00,Wunderground v.1.15,2013-07-26 09:54:00,
2013-07-26 05:56:00,59.8,58.1,30.06,ESE,107,0.0,1.0,94,0.00,,,0.00,Wunderground v.1.15,2013-07-26 09:56:00,
2013-07-26 05:57:00,59.9,58.2,30.06,ESE,108,0.0,1.0,94,0.00,,,0.00,Wunderground v.1.15,2013-07-26 09:57:00,
2013-07-26 05:58:00,59.9,58.2,30.06,ESE,107,0.0,1.0,94,0.00,,,0.00,Wunderground v.1.15,2013-07-26 09:58:00,
2013-07-26 06:03:00,59.8,58.1,30.06,ESE,107,0.0,1.0,94,0.00,,,0.00,Wunderground v.1.15,2013-07-26 10:03:00,
2013-07-26 06:04:00,59.8,58.1,30.06,ESE,108,0.0,1.0,94,0.00,,,0.00,Wunderground v.1.15,2013-07-26 10:04:00,
2013-07-26 06:05:00,59.8,58.1,30.06,ESE,108,0.0,1.0,94,0.00,,,0.00,Wunderground v.1.15,2013-07-26 10:05:00,
2013-07-26 06:10:00,59.8,58.4,30.06,ESE,108,0.0,1.0,95,0.00,,,0.00,Wunderground v.1.15,2013-07-26 10:10:00,
2013-07-26 06:12:00,59.7,58.3,30.06,ESE,107,0.0,1.0,95,0.00,,,0.00,Wunderground v.1.15,2013-07-26 10:12:00,
2013-07-26 06:15:00,59.6,57.9,30.06,ESE,108,0.0,2.0,94,0.00,,,0.00,Wunderground v.1.15,2013-07-26 10:15:00,
2013-07-26 06:16:00,59.6,57.9,30.06,ESE,108,0.0,2.0,94,0.00,,,0.00,Wunderground v.1.15,2013-07-26 10:16:00,
2013-07-26 06:19:00,59.5,58.1,30.06,ESE,108,0.0,2.0,95,0.00,,,0.00,Wunderground v.1.15,2013-07-26 10:19:00,
2013-07-26 06:21:00,59.5,58.1,30.06,ESE,108,0.0,2.0,95,0.00,,,0.00,Wunderground v.1.15,2013-07-26 10:21:00,
2013-07-26 06:23:00,59.5,58.1,30.06,ESE,107,0.0,2.0,95,0.00,,,0.00,Wunderground v.1.15,2013-07-26 10:23:00,
2013-07-26 06:24:00,59.5,58.1,30.06,ESE,108,0.0,2.0,95,0.00,,,0.00,Wunderground v.1.15,2013-07-26 10:24:00,
2013-07-26 06:25:00,59.5,58.1,30.06,ESE,108,0.0,2.0,95,0.00,,,0.00,Wunderground v.1.15,2013-07-26 10:25:00,
2013-07-26 06:26:00,59.5,57.8,30.06,ESE,107,0.0,2.0,94,0.00,,,0.00,Wunderground v.1.15,2013-07-26 10:26:00,
2013-07-26 06:29:00,59.5,57.8,30.06,ESE,108,0.0,2.0,94,0.00,,,0.00,Wunderground v.1.15,2013-07-26 10:29:00,
2013-07-26 06:30:00,59.5,57.8,30.06,ESE,108,0.0,2.0,94,0.00,,,0.00,Wunderground v.1.15,2013-07-26 10:30:00,
2013-07-26 06:31:00,59.5,57.8,30.06,ESE,107,0.0,2.0,94,0.00,,,0.00,Wunderground v.1.15,2013-07-26 10:31:00,
2013-07-26 06:33:00,59.6,57.9,30.06,ESE,108,0.0,2.0,94,0.00,,,0.00,Wunderground v.1.15,2013-07-26 10:33:00,
2013-07-26 06:35:00,59.6,57.9,30.06,ESE,108,0.0,2.0,94,0.00,,,0.00,Wunderground v.1.15,2013-07-26 10:35:00,
2013-07-26 06:38:00,59.7,58.0,30.06,ESE,108,0.0,2.0,94,0.00,,,0.00,Wunderground v.1.15,2013-07-26 10:38:00,
2013-07-26 06:39:00,59.6,57.9,30.06,ESE,108,0.0,2.0,94,0.00,,,0.00,Wunderground v.1.15,2013-07-26 10:39:00,
2013-07-26 06:41:00,59.6,57.9,30.06,ESE,107,0.0,2.0,94,0.00,,,0.00,Wunderground v.1.15,2013-07-26 10:41:00,
2013-07-26 06:43:00,59.7,57.7,30.06,ESE,108,0.0,2.0,93,0.00,,,0.00,Wunderground v.1.15,2013-07-26 10:43:00,
2013-07-26 06:47:00,59.7,57.7,30.06,ESE,108,0.0,2.0,93,0.00,,,0.00,Wunderground v.1.15,2013-07-26 10:47:00,
2013-07-26 06:48:00,59.7,57.7,30.07,ESE,108,0.0,2.0,93,0.00,,,0.00,Wunderground v.1.15,2013-07-26 10:48:00,
2013-07-26 06:49:00,59.7,57.7,30.07,ESE,107,0.0,2.0,93,0.00,,,0.00,Wunderground v.1.15,2013-07-26 10:49:00,
2013-07-26 06:50:00,59.7,57.7,30.07,ESE,107,0.0,1.0,93,0.00,,,0.00,Wunderground v.1.15,2013-07-26 10:50:00,
2013-07-26 06:55:00,59.8,57.8,30.07,ESE,107,0.0,1.0,93,0.00,,,0.00,Wunderground v.1.15,2013-07-26 10:55:00,
2013-07-26 06:56:00,59.8,57.8,30.07,ESE,108,0.0,1.0,93,0.00,,,0.00,Wunderground v.1.15,2013-07-26 10:56:00,
2013-07-26 06:58:00,59.9,57.6,30.07,ESE,108,0.0,1.0,92,0.00,,,0.00,Wunderground v.1.15,2013-07-26 10:58:00,
2013-07-26 07:01:00,60.0,57.7,30.07,ESE,107,0.0,1.0,92,0.00,,,0.00,Wunderground v.1.15,2013-07-26 11:01:00,
2013-07-26 07:04:00,60.1,57.8,30.07,ESE,108,0.0,1.0,92,0.00,,,0.00,Wunderground v.1.15,2013-07-26 11:04:00,
2013-07-26 07:06:00,60.1,57.8,30.07,ESE,108,0.0,1.0,92,0.00,,,0.00,Wunderground v.1.15,2013-07-26 11:06:00,
2013-07-26 07:07:00,60.2,57.9,30.07,ESE,108,0.0,1.0,92,0.00,,,0.00,Wunderground v.1.15,2013-07-26 11:07:00,
2013-07-26 07:08:00,60.2,57.9,30.07,ESE,108,0.0,1.0,92,0.00,,,0.00,Wunderground v.1.15,2013-07-26 11:08:00,
2013-07-26 07:09:00,60.2,57.9,30.07,ESE,108,0.0,1.0,92,0.00,,,0.00,Wunderground v.1.15,2013-07-26 11:09:00,
2013-07-26 07:12:00,60.3,58.0,30.07,ESE,108,0.0,1.0,92,0.00,,,0.00,Wunderground v.1.15,2013-07-26 11:12:00,
2013-07-26 07:13:00,60.3,58.0,30.07,ESE,108,0.0,1.0,92,0.00,,,0.00,Wunderground v.1.15,2013-07-26 11:13:00,
2013-07-26 07:14:00,60.3,58.0,30.07,ESE,107,0.0,1.0,92,0.00,,,0.00,Wunderground v.1.15,2013-07-26 11:14:00,
2013-07-26 07:18:00,60.3,58.0,30.07,ESE,108,0.0,1.0,92,0.00,,,0.00,Wunderground v.1.15,2013-07-26 11:18:00,
2013-07-26 07:19:00,60.3,58.0,30.07,ESE,108,0.0,1.0,92,0.00,,,0.00,Wunderground v.1.15,2013-07-26 11:19:00,
2013-07-26 07:20:00,60.3,58.3,30.07,ESE,108,0.0,0.0,93,0.00,,,0.00,Wunderground v.1.15,2013-07-26 11:20:00,
2013-07-26 07:21:00,60.4,58.4,30.07,ESE,108,0.0,0.0,93,0.00,,,0.00,Wunderground v.1.15,2013-07-26 11:21:00,
2013-07-26 07:25:00,60.5,58.5,30.07,ESE,108,0.0,0.0,93,0.00,,,0.00,Wunderground v.1.15,2013-07-26 11:25:00,
2013-07-26 07:27:00,60.4,58.4,30.07,ESE,108,0.0,0.0,93,0.00,,,0.00,Wunderground v.1.15,2013-07-26 11:27:00,
2013-07-26 07:28:00,60.5,58.5,30.07,ESE,108,0.0,0.0,93,0.00,,,0.00,Wunderground v.1.15,2013-07-26 11:28:00,
2013-07-26 07:30:00,60.6,58.6,30.07,ESE,108,0.0,0.0,93,0.00,,,0.00,Wunderground v.1.15,2013-07-26 11:30:00,
2013-07-26 07:31:00,60.6,58.6,30.07,ESE,108,0.0,0.0,93,0.00,,,0.00,Wunderground v.1.15,2013-07-26 11:31:00,
2013-07-26 07:32:00,60.7,58.7,30.07,ESE,108,0.0,0.0,93,0.00,,,0.00,Wunderground v.1.15,2013-07-26 11:32:00,
2013-07-26 07:35:00,60.8,58.8,30.07,ESE,108,0.0,0.0,93,0.00,,,0.00,Wunderground v.1.15,2013-07-26 11:35:00,
2013-07-26 07:37:00,60.9,58.9,30.07,ESE,108,0.0,0.0,93,0.00,,,0.00,Wunderground v.1.15,2013-07-26 11:37:00,
2013-07-26 07:38:00,60.9,58.9,30.07,ESE,108,0.0,0.0,93,0.00,,,0.00,Wunderground v.1.15,2013-07-26 11:38:00,
2013-07-26 07:39:00,60.9,58.9,30.07,ESE,108,0.0,0.0,93,0.00,,,0.00,Wunderground v.1.15,2013-07-26 11:39:00,
2013-07-26 07:41:00,61.0,59.0,30.08,ESE,107,0.0,0.0,93,0.00,,,0.00,Wunderground v.1.15,2013-07-26 11:41:00,
2013-07-26 07:44:00,61.1,59.1,30.08,ESE,108,0.0,0.0,93,0.00,,,0.00,Wunderground v.1.15,2013-07-26 11:44:00,
2013-07-26 07:46:00,61.1,59.1,30.08,ESE,107,0.0,0.0,93,0.00,,,0.00,Wunderground v.1.15,2013-07-26 11:46:00,
2013-07-26 07:47:00,61.1,59.1,30.08,ESE,107,0.0,0.0,93,0.00,,,0.00,Wunderground v.1.15,2013-07-26 11:47:00,
2013-07-26 07:50:00,61.3,59.3,30.08,ESE,111,0.0,0.0,93,0.00,,,0.00,Wunderground v.1.15,2013-07-26 11:50:00,
2013-07-26 07:51:00,61.6,59.6,30.08,ESE,111,0.0,0.0,93,0.00,,,0.00,Wunderground v.1.15,2013-07-26 11:51:00,
2013-07-26 07:52:00,61.8,59.8,30.08,ESE,111,0.0,0.0,93,0.00,,,0.00,Wunderground v.1.15,2013-07-26 11:52:00,
2013-07-26 07:54:00,62.1,60.1,30.08,ESE,114,0.0,4.0,93,0.00,,,0.00,Wunderground v.1.15,2013-07-26 11:54:00,
2013-07-26 07:57:00,62.7,60.3,30.08,ESE,114,0.0,4.0,92,0.00,,,0.00,Wunderground v.1.15,2013-07-26 11:57:00,
2013-07-26 07:58:00,63.0,60.3,30.08,ESE,114,0.0,4.0,91,0.00,,,0.00,Wunderground v.1.15,2013-07-26 11:58:00,
2013-07-26 08:00:00,63.3,60.6,30.08,ESE,114,0.0,0.0,91,0.00,,,0.00,Wunderground v.1.15,2013-07-26 12:00:00,
2013-07-26 08:03:00,63.8,60.8,30.08,ESE,114,0.0,0.0,90,0.00,,,0.00,Wunderground v.1.15,2013-07-26 12:03:00,
2013-07-26 08:05:00,64.0,61.0,30.08,ESE,114,0.0,0.0,90,0.00,,,0.00,Wunderground v.1.15,2013-07-26 12:05:00,
2013-07-26 08:06:00,64.3,61.3,30.08,ESE,114,0.0,0.0,90,0.00,,,0.00,Wunderground v.1.15,2013-07-26 12:06:00,
2013-07-26 08:08:00,64.7,61.4,30.08,ESE,114,0.0,0.0,89,0.00,,,0.00,Wunderground v.1.15,2013-07-26 12:08:00,
2013-07-26 08:09:00,64.8,61.5,30.08,ESE,114,0.0,0.0,89,0.00,,,0.00,Wunderground v.1.15,2013-07-26 12:09:00,
2013-07-26 08:14:00,65.3,61.3,30.09,ESE,114,0.0,4.0,87,0.00,,,0.00,Wunderground v.1.15,2013-07-26 12:14:00,
2013-07-26 08:15:00,65.4,61.4,30.09,ESE,114,0.0,4.0,87,0.00,,,0.00,Wunderground v.1.15,2013-07-26 12:15:00,
2013-07-26 08:16:00,65.5,61.5,30.09,ESE,114,0.0,4.0,87,0.00,,,0.00,Wunderground v.1.15,2013-07-26 12:16:00,
2013-07-26 08:17:00,65.7,61.7,30.09,ESE,114,0.0,4.0,87,0.00,,,0.00,Wunderground v.1.15,2013-07-26 12:17:00,
2013-07-26 08:20:00,66.1,61.8,30.09,ESE,114,0.0,4.0,86,0.00,,,0.00,Wunderground v.1.15,2013-07-26 12:20:00,
2013-07-26 08:21:00,66.1,61.5,30.09,ESE,114,0.0,4.0,85,0.00,,,0.00,Wunderground v.1.15,2013-07-26 12:21:00,
2013-07-26 08:25:00,66.3,61.7,30.09,ESE,114,0.0,4.0,85,0.00,,,0.00,Wunderground v.1.15,2013-07-26 12:25:00,
2013-07-26 08:28:00,66.5,61.8,30.09,ESE,114,0.0,4.0,85,0.00,,,0.00,Wunderground v.1.15,2013-07-26 12:28:00,
2013-07-26 08:30:00,66.7,62.0,30.09,ESE,114,0.0,4.0,85,0.00,,,0.00,Wunderground v.1.15,2013-07-26 12:30:00,
2013-07-26 08:32:00,66.8,62.1,30.09,ESE,114,0.0,4.0,85,0.00,,,0.00,Wunderground v.1.15,2013-07-26 12:32:00,
2013-07-26 08:33:00,67.0,62.3,30.09,ESE,114,0.0,4.0,85,0.00,,,0.00,Wunderground v.1.15,2013-07-26 12:33:00,
2013-07-26 08:34:00,67.0,62.3,30.09,ESE,114,0.0,4.0,85,0.00,,,0.00,Wunderground v.1.15,2013-07-26 12:34:00,
2013-07-26 08:35:00,67.1,62.4,30.09,ESE,114,0.0,4.0,85,0.00,,,0.00,Wunderground v.1.15,2013-07-26 12:35:00,
2013-07-26 08:39:00,67.1,62.4,30.09,ESE,114,0.0,4.0,85,0.00,,,0.00,Wunderground v.1.15,2013-07-26 12:39:00,
2013-07-26 08:43:00,67.0,62.3,30.10,ESE,114,0.0,4.0,85,0.00,,,0.00,Wunderground v.1.15,2013-07-26 12:43:00,
2013-07-26 08:44:00,67.0,62.3,30.10,ESE,114,0.0,4.0,85,0.00,,,0.00,Wunderground v.1.15,2013-07-26 12:44:00,
2013-07-26 08:45:00,66.9,62.2,30.10,ESE,114,0.0,4.0,85,0.00,,,0.00,Wunderground v.1.15,2013-07-26 12:45:00,
2013-07-26 08:46:00,66.9,62.6,30.10,ESE,114,0.0,4.0,86,0.00,,,0.00,Wunderground v.1.15,2013-07-26 12:46:00,
2013-07-26 08:49:00,66.8,62.5,30.10,ESE,114,0.0,4.0,86,0.00,,,0.00,Wunderground v.1.15,2013-07-26 12:49:00,
2013-07-26 08:50:00,66.7,62.7,30.10,ESE,114,0.0,4.0,87,0.00,,,0.00,Wunderground v.1.15,2013-07-26 12:50:00,
2013-07-26 08:51:00,66.6,62.6,30.10,ESE,114,0.0,4.0,87,0.00,,,0.00,Wunderground v.1.15,2013-07-26 12:51:00,
2013-07-26 08:52:00,66.5,62.5,30.10,ESE,114,0.0,4.0,87,0.00,,,0.00,Wunderground v.1.15,2013-07-26 12:52:00,
2013-07-26 08:53:00,66.3,62.3,30.10,ESE,114,0.0,4.0,87,0.00,,,0.00,Wunderground v.1.15,2013-07-26 12:53:00,
2013-07-26 08:56:00,66.0,62.0,30.10,ESE,114,0.0,4.0,87,0.00,,,0.00,Wunderground v.1.15,2013-07-26 12:56:00,
2013-07-26 08:58:00,65.8,61.8,30.10,ESE,114,0.0,4.0,87,0.00,,,0.00,Wunderground v.1.15,2013-07-26 12:58:00,
2013-07-26 08:59:00,65.7,61.7,30.10,ESE,114,0.0,4.0,87,0.00,,,0.00,Wunderground v.1.15,2013-07-26 12:59:00,
2013-07-26 09:01:00,65.4,61.4,30.10,ESE,114,0.0,4.0,87,0.00,,,0.00,Wunderground v.1.15,2013-07-26 13:01:00,
2013-07-26 09:02:00,65.3,61.7,30.10,ESE,114,0.0,4.0,88,0.00,,,0.00,Wunderground v.1.15,2013-07-26 13:02:00,
2013-07-26 09:04:00,65.1,61.5,30.10,ESE,114,0.0,4.0,88,0.00,,,0.00,Wunderground v.1.15,2013-07-26 13:04:00,
2013-07-26 09:07:00,64.8,61.2,30.10,ESE,114,0.0,4.0,88,0.00,,,0.00,Wunderground v.1.15,2013-07-26 13:07:00,
2013-07-26 09:08:00,64.7,61.1,30.10,ESE,114,0.0,4.0,88,0.00,,,0.00,Wunderground v.1.15,2013-07-26 13:08:00,
2013-07-26 09:10:00,64.6,61.3,30.10,ESE,114,0.0,4.0,89,0.00,,,0.00,Wunderground v.1.15,2013-07-26 13:10:00,
2013-07-26 09:14:00,64.2,60.9,30.10,ESE,114,0.0,4.0,89,0.00,,,0.00,Wunderground v.1.15,2013-07-26 13:14:00,
2013-07-26 09:15:00,64.1,60.8,30.10,ESE,114,0.0,4.0,89,0.00,,,0.00,Wunderground v.1.15,2013-07-26 13:15:00,
2013-07-26 09:17:00,63.9,60.9,30.10,ESE,114,0.0,4.0,90,0.00,,,0.00,Wunderground v.1.15,2013-07-26 13:17:00,
2013-07-26 09:21:00,63.5,60.5,30.11,ESE,114,0.0,0.0,90,0.00,,,0.00,Wunderground v.1.15,2013-07-26 13:21:00,
2013-07-26 09:22:00,63.4,60.4,30.10,ESE,114,0.0,0.0,90,0.00,,,0.00,Wunderground v.1.15,2013-07-26 13:22:00,
2013-07-26 09:28:00,63.2,60.2,30.10,ESE,114,0.0,0.0,90,0.00,,,0.00,Wunderground v.1.15,2013-07-26 13:28:00,
2013-07-26 09:30:00,63.1,60.1,30.10,ESE,114,0.0,0.0,90,0.00,,,0.00,Wunderground v.1.15,2013-07-26 13:30:00,
2013-07-26 09:31:00,63.1,60.1,30.10,ESE,114,0.0,0.0,90,0.00,,,0.00,Wunderground v.1.15,2013-07-26 13:31:00,
2013-07-26 09:35:00,63.2,60.5,30.10,ESE,114,0.0,0.0,91,0.00,,,0.00,Wunderground v.1.15,2013-07-26 13:35:00,
2013-07-26 09:36:00,63.2,60.5,30.10,ESE,114,0.0,0.0,91,0.00,,,0.00,Wunderground v.1.15,2013-07-26 13:36:00,
2013-07-26 09:37:00,63.2,60.5,30.10,ESE,114,0.0,0.0,91,0.00,,,0.00,Wunderground v.1.15,2013-07-26 13:37:00,
2013-07-26 09:40:00,63.5,60.8,30.10,ESE,114,0.0,0.0,91,0.00,,,0.00,Wunderground v.1.15,2013-07-26 13:40:00,
2013-07-26 09:42:00,63.8,61.4,30.10,ESE,114,0.0,0.0,92,0.00,,,0.00,Wunderground v.1.15,2013-07-26 13:42:00,
2013-07-26 09:43:00,64.0,61.6,30.10,ESE,114,0.0,0.0,92,0.00,,,0.00,Wunderground v.1.15,2013-07-26 13:43:00,
2013-07-26 09:44:00,64.1,61.7,30.10,ESE,114,0.0,0.0,92,0.00,,,0.00,Wunderground v.1.15,2013-07-26 13:44:00,
2013-07-26 09:46:00,64.4,62.0,30.10,ESE,114,0.0,0.0,92,0.00,,,0.00,Wunderground v.1.15,2013-07-26 13:46:00,
2013-07-26 09:49:00,65.0,62.6,30.10,ESE,114,0.0,0.0,92,0.00,,,0.00,Wunderground v.1.15,2013-07-26 13:49:00,
2013-07-26 09:50:00,65.2,62.8,30.10,ESE,114,0.0,0.0,92,0.00,,,0.00,Wunderground v.1.15,2013-07-26 13:50:00,
2013-07-26 09:51:00,65.3,62.9,30.10,ESE,114,0.0,0.0,92,0.00,,,0.00,Wunderground v.1.15,2013-07-26 13:51:00,
2013-07-26 09:52:00,65.4,62.7,30.10,ESE,114,0.0,0.0,91,0.00,,,0.00,Wunderground v.1.15,2013-07-26 13:52:00,
2013-07-26 09:54:00,65.7,63.0,30.10,ESE,114,0.0,0.0,91,0.00,,,0.00,Wunderground v.1.15,2013-07-26 13:54:00,
2013-07-26 09:56:00,66.0,63.3,30.10,ESE,114,0.0,0.0,91,0.00,,,0.00,Wunderground v.1.15,2013-07-26 13:56:00,
2013-07-26 09:57:00,66.2,63.5,30.10,ESE,114,0.0,0.0,91,0.00,,,0.00,Wunderground v.1.15,2013-07-26 13:57:00,
2013-07-26 09:59:00,66.3,63.3,30.10,ESE,114,0.0,0.0,90,0.00,,,0.00,Wunderground v.1.15,2013-07-26 13:59:00,
2013-07-26 10:00:00,66.4,63.4,30.10,ESE,114,0.0,0.0,90,0.00,,,0.00,Wunderground v.1.15,2013-07-26 14:00:00,
2013-07-26 10:02:00,66.5,63.5,30.10,North,360,0.0,3.0,90,0.00,,,0.00,Wunderground v.1.15,2013-07-26 14:02:00,
2013-07-26 10:04:00,66.4,62.4,30.10,NNW,331,0.0,3.0,87,0.00,,,0.00,Wunderground v.1.15,2013-07-26 14:04:00,
2013-07-26 10:05:00,66.4,62.4,30.10,NNW,333,0.0,3.0,87,0.00,,,0.00,Wunderground v.1.15,2013-07-26 14:05:00,
2013-07-26 10:09:00,66.4,62.1,30.10,NNW,331,1.0,3.0,86,0.00,,,0.00,Wunderground v.1.15,2013-07-26 14:09:00,
2013-07-26 10:11:00,66.4,62.1,30.10,NNW,331,1.0,1.0,86,0.00,,,0.00,Wunderground v.1.15,2013-07-26 14:11:00,
2013-07-26 10:12:00,66.5,62.2,30.10,NNW,331,1.0,1.0,86,0.00,,,0.00,Wunderground v.1.15,2013-07-26 14:12:00,
2013-07-26 10:14:00,66.7,62.7,30.10,ENE,63,0.0,4.0,87,0.00,,,0.00,Wunderground v.1.15,2013-07-26 14:14:00,
2013-07-26 10:16:00,66.9,62.2,30.10,ENE,63,0.0,4.0,85,0.00,,,0.00,Wunderground v.1.15,2013-07-26 14:16:00,
2013-07-26 10:18:00,67.2,62.9,30.09,ENE,63,0.0,4.0,86,0.00,,,0.00,Wunderground v.1.15,2013-07-26 14:18:00,
2013-07-26 10:19:00,67.3,63.0,30.09,NNE,29,0.0,4.0,86,0.00,,,0.00,Wunderground v.1.15,2013-07-26 14:19:00,
2013-07-26 10:21:00,67.4,63.4,30.10,NNE,29,0.0,4.0,87,0.00,,,0.00,Wunderground v.1.15,2013-07-26 14:21:00,
2013-07-26 10:22:00,67.4,63.4,30.10,NNE,30,0.0,4.0,87,0.00,,,0.00,Wunderground v.1.15,2013-07-26 14:22:00,
2013-07-26 10:24:00,67.3,63.0,30.09,NNE,29,0.0,4.0,86,0.00,,,0.00,Wunderground v.1.15,2013-07-26 14:24:00,
2013-07-26 10:25:00,67.2,62.9,30.09,NNE,29,0.0,4.0,86,0.00,,,0.00,Wunderground v.1.15,2013-07-26 14:25:00,
2013-07-26 10:29:00,67.1,63.1,30.10,NNE,29,0.0,4.0,87,0.00,,,0.00,Wunderground v.1.15,2013-07-26 14:29:00,
2013-07-26 10:31:00,67.2,63.2,30.10,NNE,29,0.0,4.0,87,0.00,,,0.00,Wunderground v.1.15,2013-07-26 14:31:00,
2013-07-26 10:32:00,67.3,63.6,30.10,NNE,30,0.0,4.0,88,0.00,,,0.00,Wunderground v.1.15,2013-07-26 14:32:00,
2013-07-26 10:36:00,67.8,63.8,30.10,NNE,29,0.0,4.0,87,0.00,,,0.00,Wunderground v.1.15,2013-07-26 14:36:00,
2013-07-26 10:37:00,67.9,63.9,30.09,NNE,30,0.0,4.0,87,0.00,,,0.00,Wunderground v.1.15,2013-07-26 14:37:00,
2013-07-26 10:39:00,67.9,63.9,30.10,NNE,24,0.0,4.0,87,0.00,,,0.00,Wunderground v.1.15,2013-07-26 14:39:00,
2013-07-26 10:40:00,68.0,63.7,30.10,NNE,24,0.0,4.0,86,0.00,,,0.00,Wunderground v.1.15,2013-07-26 14:40:00,
2013-07-26 10:41:00,68.0,63.7,30.09,NNE,14,0.0,4.0,86,0.00,,,0.00,Wunderground v.1.15,2013-07-26 14:41:00,
2013-07-26 10:44:00,67.9,63.2,30.09,NNE,14,0.0,4.0,85,0.00,,,0.00,Wunderground v.1.15,2013-07-26 14:44:00,
2013-07-26 10:46:00,67.8,63.1,30.09,NNE,14,0.0,4.0,85,0.00,,,0.00,Wunderground v.1.15,2013-07-26 14:46:00,
2013-07-26 10:48:00,67.8,63.1,30.09,NNE,14,0.0,4.0,85,0.00,,,0.00,Wunderground v.1.15,2013-07-26 14:48:00,
2013-07-26 10:49:00,67.7,63.0,30.09,NNE,14,0.0,4.0,85,0.00,,,0.00,Wunderground v.1.15,2013-07-26 14:49:00,
2013-07-26 10:50:00,67.7,63.0,30.09,NNE,14,0.0,3.0,85,0.00,,,0.00,Wunderground v.1.15,2013-07-26 14:50:00,
2013-07-26 10:54:00,67.8,62.8,30.09,WNW,298,0.0,3.0,84,0.00,,,0.00,Wunderground v.1.15,2013-07-26 14:54:00,
2013-07-26 10:56:00,68.0,62.6,30.09,WNW,299,0.0,3.0,83,0.00,,,0.00,Wunderground v.1.15,2013-07-26 14:56:00,
2013-07-26 10:57:00,68.0,62.6,30.09,WNW,299,0.0,3.0,83,0.00,,,0.00,Wunderground v.1.15,2013-07-26 14:57:00,
2013-07-26 10:59:00,68.1,62.7,30.09,WNW,299,0.0,3.0,83,0.00,,,0.00,Wunderground v.1.15,2013-07-26 14:59:00,
2013-07-26 11:00:00,68.1,62.7,30.09,WNW,299,0.0,3.0,83,0.00,,,0.00,Wunderground v.1.15,2013-07-26 15:00:00,
2013-07-26 11:02:00,68.2,62.8,30.09,WNW,299,0.0,3.0,83,0.00,,,0.00,Wunderground v.1.15,2013-07-26 15:02:00,
2013-07-26 11:05:00,68.2,63.2,30.09,WNW,299,0.0,3.0,84,0.00,,,0.00,Wunderground v.1.15,2013-07-26 15:05:00,
2013-07-26 11:07:00,68.3,62.9,30.09,NNW,340,0.0,3.0,83,0.00,,,0.00,Wunderground v.1.15,2013-07-26 15:07:00,
2013-07-26 11:09:00,68.6,63.6,30.09,NNW,338,0.0,4.0,84,0.00,,,0.00,Wunderground v.1.15,2013-07-26 15:09:00,
2013-07-26 11:10:00,68.7,63.3,30.09,NNW,342,0.0,3.0,83,0.00,,,0.00,Wunderground v.1.15,2013-07-26 15:10:00,
2013-07-26 11:12:00,69.0,63.3,30.08,NW,322,0.0,3.0,82,0.00,,,0.00,Wunderground v.1.15,2013-07-26 15:12:00,
2013-07-26 11:14:00,69.1,63.0,30.08,WNW,290,1.0,6.0,81,0.00,,,0.00,Wunderground v.1.15,2013-07-26 15:14:00,
2013-07-26 11:16:00,69.1,62.7,30.08,WNW,290,1.0,6.0,80,0.00,,,0.00,Wunderground v.1.15,2013-07-26 15:16:00,
2013-07-26 11:17:00,69.0,62.6,30.08,WNW,290,1.0,6.0,80,0.00,,,0.00,Wunderground v.1.15,2013-07-26 15:17:00,
2013-07-26 11:20:00,68.8,62.4,30.09,WNW,290,0.0,6.0,80,0.00,,,0.00,Wunderground v.1.15,2013-07-26 15:20:00,
2013-07-26 11:21:00,68.8,62.4,30.08,WNW,290,0.0,6.0,80,0.00,,,0.00,Wunderground v.1.15,2013-07-26 15:21:00,
2013-07-26 11:22:00,68.8,62.0,30.08,WNW,290,0.0,6.0,79,0.00,,,0.00,Wunderground v.1.15,2013-07-26 15:22:00,
2013-07-26 11:23:00,68.8,62.4,30.08,WNW,290,0.0,6.0,80,0.00,,,0.00,Wunderground v.1.15,2013-07-26 15:23:00,
2013-07-26 11:27:00,68.8,62.7,30.09,WNW,290,0.0,6.0,81,0.00,,,0.00,Wunderground v.1.15,2013-07-26 15:27:00,
2013-07-26 11:28:00,68.8,62.7,30.09,WNW,290,0.0,6.0,81,0.00,,,0.00,Wunderground v.1.15,2013-07-26 15:28:00,
2013-07-26 11:30:00,68.8,62.7,30.09,WNW,294,0.0,6.0,81,0.00,,,0.00,Wunderground v.1.15,2013-07-26 15:30:00,
2013-07-26 11:32:00,68.6,62.2,30.09,NW,305,0.0,6.0,80,0.00,,,0.00,Wunderground v.1.15,2013-07-26 15:32:00,
2013-07-26 11:33:00,68.6,62.5,30.09,NW,305,0.0,6.0,81,0.00,,,0.00,Wunderground v.1.15,2013-07-26 15:33:00,
2013-07-26 11:37:00,68.5,62.4,30.09,NW,304,0.0,6.0,81,0.00,,,0.00,Wunderground v.1.15,2013-07-26 15:37:00,
2013-07-26 11:38:00,68.4,62.7,30.09,NW,305,0.0,6.0,82,0.00,,,0.00,Wunderground v.1.15,2013-07-26 15:38:00,
2013-07-26 11:39:00,68.4,62.7,30.09,NW,305,0.0,6.0,82,0.00,,,0.00,Wunderground v.1.15,2013-07-26 15:39:00,
2013-07-26 11:40:00,68.4,62.7,30.09,NW,305,0.0,6.0,82,0.00,,,0.00,Wunderground v.1.15,2013-07-26 15:40:00,
2013-07-26 11:42:00,68.3,62.6,30.09,NW,326,0.0,6.0,82,0.00,,,0.00,Wunderground v.1.15,2013-07-26 15:42:00,
2013-07-26 11:45:00,68.1,61.7,30.09,NNW,327,0.0,6.0,80,0.00,,,0.00,Wunderground v.1.15,2013-07-26 15:45:00,
2013-07-26 11:46:00,68.0,61.2,30.09,NNW,327,0.0,6.0,79,0.00,,,0.00,Wunderground v.1.15,2013-07-26 15:46:00,
2013-07-26 11:48:00,67.9,61.1,30.08,NNW,339,0.0,6.0,79,0.00,,,0.00,Wunderground v.1.15,2013-07-26 15:48:00,
2013-07-26 11:49:00,67.9,61.1,30.08,NNW,335,0.0,6.0,79,0.00,,,0.00,Wunderground v.1.15,2013-07-26 15:49:00,
2013-07-26 11:52:00,67.8,60.3,30.08,NW,306,0.0,6.0,77,0.00,,,0.00,Wunderground v.1.15,2013-07-26 15:52:00,
2013-07-26 11:54:00,67.8,61.4,30.08,NW,306,0.0,6.0,80,0.00,,,0.00,Wunderground v.1.15,2013-07-26 15:54:00,
2013-07-26 11:57:00,67.8,61.0,30.09,NW,306,0.0,6.0,79,0.00,,,0.00,Wunderground v.1.15,2013-07-26 15:57:00,
2013-07-26 11:58:00,67.7,60.6,30.09,NW,306,0.0,6.0,78,0.00,,,0.00,Wunderground v.1.15,2013-07-26 15:58:00,
2013-07-26 12:00:00,67.7,60.2,30.09,NW,306,0.0,6.0,77,0.00,,,0.00,Wunderground v.1.15,2013-07-26 16:00:00,
2013-07-26 12:01:00,67.7,60.6,30.09,NW,306,0.0,6.0,78,0.00,,,0.00,Wunderground v.1.15,2013-07-26 16:01:00,
2013-07-26 12:03:00,68.0,61.6,30.09,NW,306,0.0,6.0,80,0.00,,,0.00,Wunderground v.1.15,2013-07-26 16:03:00,
2013-07-26 12:07:00,68.4,61.3,30.09,NW,306,0.0,6.0,78,0.00,,,0.00,Wunderground v.1.15,2013-07-26 16:07:00,
2013-07-26 12:08:00,68.6,61.5,30.09,NW,306,0.0,6.0,78,0.00,,,0.00,Wunderground v.1.15,2013-07-26 16:08:00,
2013-07-26 12:09:00,68.7,61.6,30.09,NW,306,0.0,6.0,78,0.00,,,0.00,Wunderground v.1.15,2013-07-26 16:09:00,
2013-07-26 12:13:00,69.4,62.2,30.09,NW,320,0.0,6.0,78,0.00,,,0.00,Wunderground v.1.15,2013-07-26 16:13:00,
2013-07-26 12:14:00,69.5,62.0,30.09,NNW,343,0.0,6.0,77,0.00,,,0.00,Wunderground v.1.15,2013-07-26 16:14:00,
2013-07-26 12:15:00,69.7,61.8,30.08,NNW,343,0.0,6.0,76,0.00,,,0.00,Wunderground v.1.15,2013-07-26 16:15:00,
2013-07-26 12:16:00,69.9,62.7,30.08,WNW,287,0.0,6.0,78,0.00,,,0.00,Wunderground v.1.15,2013-07-26 16:16:00,
2013-07-26 12:19:00,70.0,61.3,30.08,NW,309,0.0,6.0,74,0.00,,,0.00,Wunderground v.1.15,2013-07-26 16:19:00,
2013-07-26 12:21:00,69.9,62.0,30.08,NW,309,0.0,2.0,76,0.00,,,0.00,Wunderground v.1.15,2013-07-26 16:21:00,
2013-07-26 12:22:00,69.9,61.2,30.08,NW,309,0.0,2.0,74,0.00,,,0.00,Wunderground v.1.15,2013-07-26 16:22:00,
2013-07-26 12:25:00,69.7,61.4,30.09,NW,310,0.0,2.0,75,0.00,,,0.00,Wunderground v.1.15,2013-07-26 16:25:00,
2013-07-26 12:26:00,69.7,61.4,30.09,NNW,328,0.0,2.0,75,0.00,,,0.00,Wunderground v.1.15,2013-07-26 16:26:00,
2013-07-26 12:29:00,69.8,62.6,30.08,NW,322,0.0,3.0,78,0.00,,,0.00,Wunderground v.1.15,2013-07-26 16:29:00,
2013-07-26 12:31:00,70.0,61.7,30.08,West,279,0.0,2.0,75,0.00,,,0.00,Wunderground v.1.15,2013-07-26 16:31:00,
2013-07-26 12:32:00,70.1,61.8,30.08,West,279,0.0,2.0,75,0.00,,,0.00,Wunderground v.1.15,2013-07-26 16:32:00,
2013-07-26 12:34:00,70.4,61.7,30.08,West,279,0.0,2.0,74,0.00,,,0.00,Wunderground v.1.15,2013-07-26 16:34:00,
2013-07-26 12:35:00,70.6,61.9,30.08,West,279,0.0,2.0,74,0.00,,,0.00,Wunderground v.1.15,2013-07-26 16:35:00,
2013-07-26 12:38:00,70.8,61.7,30.08,West,279,0.0,2.0,73,0.00,,,0.00,Wunderground v.1.15,2013-07-26 16:38:00,
2013-07-26 12:40:00,70.8,62.1,30.08,West,279,0.0,2.0,74,0.00,,,0.00,Wunderground v.1.15,2013-07-26 16:40:00,
2013-07-26 12:41:00,70.7,61.6,30.08,West,279,0.0,2.0,73,0.00,,,0.00,Wunderground v.1.15,2013-07-26 16:41:00,
2013-07-26 12:43:00,70.4,60.9,30.08,West,279,0.0,4.0,72,0.00,,,0.00,Wunderground v.1.15,2013-07-26 16:43:00,
2013-07-26 12:44:00,70.4,60.9,30.08,West,279,0.0,4.0,72,0.00,,,0.00,Wunderground v.1.15,2013-07-26 16:44:00,
2013-07-26 12:45:00,70.3,61.2,30.08,NW,319,0.0,4.0,73,0.00,,,0.00,Wunderground v.1.15,2013-07-26 16:45:00,
2013-07-26 12:46:00,70.3,62.0,30.08,NW,319,0.0,4.0,75,0.00,,,0.00,Wunderground v.1.15,2013-07-26 16:46:00,
2013-07-26 12:49:00,70.1,61.8,30.08,NW,319,0.0,4.0,75,0.00,,,0.00,Wunderground v.1.15,2013-07-26 16:49:00,
2013-07-26 12:52:00,69.9,61.2,30.08,NNW,333,0.0,4.0,74,0.00,,,0.00,Wunderground v.1.15,2013-07-26 16:52:00,
2013-07-26 12:54:00,69.8,61.5,30.08,NNW,330,0.0,4.0,75,0.00,,,0.00,Wunderground v.1.15,2013-07-26 16:54:00,
2013-07-26 12:55:00,69.8,61.5,30.08,NNW,330,0.0,4.0,75,0.00,,,0.00,Wunderground v.1.15,2013-07-26 16:55:00,
2013-07-26 12:57:00,69.8,61.9,30.08,NNW,330,0.0,4.0,76,0.00,,,0.00,Wunderground v.1.15,2013-07-26 16:57:00,
2013-07-26 13:00:00,70.3,62.7,30.08,WNW,302,0.0,4.0,77,0.00,,,0.00,Wunderground v.1.15,2013-07-26 17:00:00,
2013-07-26 13:02:00,70.7,62.8,30.08,NW,315,0.0,4.0,76,0.00,,,0.00,Wunderground v.1.15,2013-07-26 17:02:00,
2013-07-26 13:03:00,70.8,63.2,30.08,NNW,339,0.0,4.0,77,0.00,,,0.00,Wunderground v.1.15,2013-07-26 17:03:00,
2013-07-26 13:07:00,71.2,62.5,30.08,WNW,295,0.0,4.0,74,0.00,,,0.00,Wunderground v.1.15,2013-07-26 17:07:00,
2013-07-26 13:08:00,71.4,63.1,30.08,NNW,339,0.0,4.0,75,0.00,,,0.00,Wunderground v.1.15,2013-07-26 17:08:00,
2013-07-26 13:09:00,71.5,63.5,30.08,NNW,338,0.0,4.0,76,0.00,,,0.00,Wunderground v.1.15,2013-07-26 17:09:00,
2013-07-26 13:10:00,71.7,64.1,30.08,NW,317,0.0,4.0,77,0.00,,,0.00,Wunderground v.1.15,2013-07-26 17:10:00,
2013-07-26 13:11:00,71.9,64.7,30.08,NW,318,0.0,4.0,78,0.00,,,0.00,Wunderground v.1.15,2013-07-26 17:11:00,
2013-07-26 13:16:00,72.2,62.3,30.08,WNW,291,1.0,4.0,71,0.00,,,0.00,Wunderground v.1.15,2013-07-26 17:16:00,
2013-07-26 13:17:00,72.2,62.3,30.08,WNW,292,1.0,4.0,71,0.00,,,0.00,Wunderground v.1.15,2013-07-26 17:17:00,
2013-07-26 13:18:00,72.2,62.7,30.08,WNW,291,1.0,4.0,72,0.00,,,0.00,Wunderground v.1.15,2013-07-26 17:18:00,
2013-07-26 13:22:00,72.2,62.3,30.08,NNW,331,1.0,4.0,71,0.00,,,0.00,Wunderground v.1.15,2013-07-26 17:22:00,
2013-07-26 13:24:00,72.2,62.3,30.08,NNW,330,0.0,4.0,71,0.00,,,0.00,Wunderground v.1.15,2013-07-26 17:24:00,
2013-07-26 13:25:00,72.2,62.3,30.07,NNW,330,0.0,4.0,71,0.00,,,0.00,Wunderground v.1.15,2013-07-26 17:25:00,
2013-07-26 13:27:00,72.4,64.0,30.07,NNW,330,0.0,4.0,75,0.00,,,0.00,Wunderground v.1.15,2013-07-26 17:27:00,
2013-07-26 13:31:00,73.0,63.4,30.07,WNW,286,0.0,4.0,72,0.00,,,0.00,Wunderground v.1.15,2013-07-26 17:31:00,
2013-07-26 13:33:00,73.2,63.6,30.08,WNW,286,1.0,4.0,72,0.00,,,0.00,Wunderground v.1.15,2013-07-26 17:33:00,
2013-07-26 13:34:00,73.2,63.6,30.08,WNW,286,1.0,4.0,72,0.00,,,0.00,Wunderground v.1.15,2013-07-26 17:34:00,
2013-07-26 13:37:00,73.3,62.1,30.07,NW,320,1.0,4.0,68,0.00,,,0.00,Wunderground v.1.15,2013-07-26 17:37:00,
2013-07-26 13:38:00,73.3,62.1,30.07,NW,321,1.0,4.0,68,0.00,,,0.00,Wunderground v.1.15,2013-07-26 17:38:00,
2013-07-26 13:39:00,73.3,62.5,30.07,NW,321,1.0,4.0,69,0.00,,,0.00,Wunderground v.1.15,2013-07-26 17:39:00,
2013-07-26 13:40:00,73.5,63.5,30.07,NW,320,1.0,1.0,71,0.00,,,0.00,Wunderground v.1.15,2013-07-26 17:40:00,
2013-07-26 13:42:00,73.6,62.8,30.07,NW,306,1.0,4.0,69,0.00,,,0.00,Wunderground v.1.15,2013-07-26 17:42:00,
2013-07-26 13:45:00,73.7,62.9,30.07,SSW,196,1.0,7.0,69,0.00,,,0.00,Wunderground v.1.15,2013-07-26 17:45:00,
2013-07-26 13:46:00,73.7,63.3,30.07,WNW,298,1.0,7.0,70,0.00,,,0.00,Wunderground v.1.15,2013-07-26 17:46:00,
2013-07-26 13:47:00,73.6,62.4,30.08,WNW,284,1.0,7.0,68,0.00,,,0.00,Wunderground v.1.15,2013-07-26 17:47:00,
2013-07-26 13:52:00,72.4,61.7,30.07,SW,227,2.0,7.0,69,0.00,,,0.00,Wunderground v.1.15,2013-07-26 17:52:00,
2013-07-26 13:54:00,71.9,61.2,30.07,NNW,330,2.0,7.0,69,0.00,,,0.00,Wunderground v.1.15,2013-07-26 17:54:00,
2013-07-26 13:55:00,71.7,61.8,30.07,NW,326,2.0,7.0,71,0.00,,,0.00,Wunderground v.1.15,2013-07-26 17:55:00,
2013-07-26 13:57:00,71.6,62.1,30.07,NW,313,1.0,7.0,72,0.00,,,0.00,Wunderground v.1.15,2013-07-26 17:57:00,
2013-07-26 13:58:00,71.5,60.8,30.07,NW,304,1.0,7.0,69,0.00,,,0.00,Wunderground v.1.15,2013-07-26 17:58:00,
2013-07-26 14:00:00,71.5,62.0,30.07,NNW,344,1.0,7.0,72,0.00,,,0.00,Wunderground v.1.15,2013-07-26 18:00:00,
2013-07-26 14:03:00,71.7,61.4,30.07,NW,323,1.0,7.0,70,0.00,,,0.00,Wunderground v.1.15,2013-07-26 18:03:00,
2013-07-26 14:04:00,71.7,61.0,30.07,NW,323,1.0,7.0,69,0.00,,,0.00,Wunderground v.1.15,2013-07-26 18:04:00,
2013-07-26 14:05:00,71.9,62.4,30.07,NW,322,1.0,7.0,72,0.00,,,0.00,Wunderground v.1.15,2013-07-26 18:05:00,
2013-07-26 14:07:00,72.1,62.2,30.07,West,279,1.0,7.0,71,0.00,,,0.00,Wunderground v.1.15,2013-07-26 18:07:00,
2013-07-26 14:11:00,72.4,61.2,30.07,WSW,241,1.0,7.0,68,0.00,,,0.00,Wunderground v.1.15,2013-07-26 18:11:00,
2013-07-26 14:12:00,72.5,61.7,30.07,WSW,241,1.0,7.0,69,0.00,,,0.00,Wunderground v.1.15,2013-07-26 18:12:00,
2013-07-26 14:14:00,72.8,62.4,30.07,WSW,241,1.0,8.0,70,0.00,,,0.00,Wunderground v.1.15,2013-07-26 18:14:00,
2013-07-26 14:15:00,72.9,62.9,30.07,WSW,241,1.0,8.0,71,0.00,,,0.00,Wunderground v.1.15,2013-07-26 18:15:00,
2013-07-26 14:16:00,73.0,62.6,30.07,WSW,254,1.0,8.0,70,0.00,,,0.00,Wunderground v.1.15,2013-07-26 18:16:00,
2013-07-26 14:20:00,73.5,61.9,30.07,WSW,255,0.0,8.0,67,0.00,,,0.00,Wunderground v.1.15,2013-07-26 18:20:00,
2013-07-26 14:21:00,73.5,62.3,30.07,WSW,255,0.0,8.0,68,0.00,,,0.00,Wunderground v.1.15,2013-07-26 18:21:00,
2013-07-26 14:22:00,73.6,62.0,30.07,WSW,255,0.0,8.0,67,0.00,,,0.00,Wunderground v.1.15,2013-07-26 18:22:00,
2013-07-26 14:26:00,73.9,62.2,30.07,West,277,0.0,8.0,67,0.00,,,0.00,Wunderground v.1.15,2013-07-26 18:26:00,
2013-07-26 14:28:00,74.0,62.8,30.07,WNW,296,0.0,8.0,68,0.00,,,0.00,Wunderground v.1.15,2013-07-26 18:28:00,
2013-07-26 14:29:00,74.1,63.3,30.07,WNW,295,0.0,8.0,69,0.00,,,0.00,Wunderground v.1.15,2013-07-26 18:29:00,
2013-07-26 14:30:00,74.0,61.9,30.07,West,260,0.0,8.0,66,0.00,,,0.00,Wunderground v.1.15,2013-07-26 18:30:00,
2013-07-26 14:33:00,74.1,62.4,30.06,West,259,0.0,8.0,67,0.00,,,0.00,Wunderground v.1.15,2013-07-26 18:33:00,
2013-07-26 14:34:00,74.0,61.9,30.06,West,259,0.0,8.0,66,0.00,,,0.00,Wunderground v.1.15,2013-07-26 18:34:00,
2013-07-26 14:35:00,74.1,61.6,30.06,West,260,0.0,8.0,65,0.00,,,0.00,Wunderground v.1.15,2013-07-26 18:35:00,
2013-07-26 14:36:00,74.0,61.9,30.07,West,260,0.0,8.0,66,0.00,,,0.00,Wunderground v.1.15,2013-07-26 18:36:00,
2013-07-26 14:39:00,74.0,61.9,30.06,West,267,0.0,8.0,66,0.00,,,0.00,Wunderground v.1.15,2013-07-26 18:39:00,
2013-07-26 14:41:00,74.1,63.3,30.06,WNW,290,0.0,8.0,69,0.00,,,0.00,Wunderground v.1.15,2013-07-26 18:41:00,
2013-07-26 14:44:00,74.2,63.0,30.06,WNW,290,0.0,8.0,68,0.00,,,0.00,Wunderground v.1.15,2013-07-26 18:44:00,
2013-07-26 14:46:00,74.3,62.2,30.06,West,271,0.0,8.0,66,0.00,,,0.00,Wunderground v.1.15,2013-07-26 18:46:00,
2013-07-26 14:49:00,74.4,63.1,30.06,NW,319,0.0,8.0,68,0.00,,,0.00,Wunderground v.1.15,2013-07-26 18:49:00,
2013-07-26 14:51:00,74.3,62.2,30.06,WNW,292,1.0,3.0,66,0.00,,,0.00,Wunderground v.1.15,2013-07-26 18:51:00,
2013-07-26 14:55:00,74.1,61.1,30.06,NW,315,1.0,3.0,64,0.00,,,0.00,Wunderground v.1.15,2013-07-26 18:55:00,
2013-07-26 14:56:00,74.0,61.9,30.06,NW,318,1.0,3.0,66,0.00,,,0.00,Wunderground v.1.15,2013-07-26 18:56:00,
2013-07-26 14:57:00,74.1,62.9,30.06,West,271,2.0,3.0,68,0.00,,,0.00,Wunderground v.1.15,2013-07-26 18:57:00,
2013-07-26 14:59:00,74.1,62.4,30.06,NW,306,2.0,3.0,67,0.00,,,0.00,Wunderground v.1.15,2013-07-26 18:59:00,
2013-07-26 15:00:00,74.1,62.9,30.06,NW,305,1.0,1.0,68,0.00,,,0.00,Wunderground v.1.15,2013-07-26 19:00:00,
2013-07-26 15:01:00,74.1,60.7,30.06,NW,305,1.0,3.0,63,0.00,,,0.00,Wunderground v.1.15,2013-07-26 19:01:00,
2013-07-26 15:03:00,74.1,60.7,30.06,NNW,342,1.0,5.0,63,0.00,,,0.00,Wunderground v.1.15,2013-07-26 19:03:00,
2013-07-26 15:06:00,73.9,59.1,30.06,NNW,329,1.0,5.0,60,0.00,,,0.00,Wunderground v.1.15,2013-07-26 19:06:00,
2013-07-26 15:07:00,73.9,60.5,30.06,NNW,330,1.0,5.0,63,0.00,,,0.00,Wunderground v.1.15,2013-07-26 19:07:00,
2013-07-26 15:08:00,73.8,60.0,30.06,NNW,333,1.0,5.0,62,0.00,,,0.00,Wunderground v.1.15,2013-07-26 19:08:00,
2013-07-26 15:11:00,74.0,61.5,30.06,NNW,332,1.0,3.0,65,0.00,,,0.00,Wunderground v.1.15,2013-07-26 19:11:00,
2013-07-26 15:12:00,74.1,62.0,30.06,NNW,332,1.0,3.0,66,0.00,,,0.00,Wunderground v.1.15,2013-07-26 19:12:00,
2013-07-26 15:15:00,74.3,60.9,30.06,NNW,333,1.0,7.0,63,0.00,,,0.00,Wunderground v.1.15,2013-07-26 19:15:00,
2013-07-26 15:16:00,74.3,60.9,30.06,NNW,329,1.0,7.0,63,0.00,,,0.00,Wunderground v.1.15,2013-07-26 19:16:00,
2013-07-26 15:17:00,74.4,62.7,30.06,NW,315,1.0,7.0,67,0.00,,,0.00,Wunderground v.1.15,2013-07-26 19:17:00,
2013-07-26 15:18:00,74.4,63.1,30.06,NNW,333,1.0,7.0,68,0.00,,,0.00,Wunderground v.1.15,2013-07-26 19:18:00,
2013-07-26 15:22:00,74.2,60.8,30.06,NW,306,2.0,7.0,63,0.00,,,0.00,Wunderground v.1.15,2013-07-26 19:22:00,
2013-07-26 15:23:00,74.2,62.1,30.06,WNW,303,3.0,7.0,66,0.00,,,0.00,Wunderground v.1.15,2013-07-26 19:23:00,
2013-07-26 15:24:00,74.1,62.0,30.06,WNW,303,3.0,7.0,66,0.00,,,0.00,Wunderground v.1.15,2013-07-26 19:24:00,
2013-07-26 15:25:00,74.2,62.1,30.06,WNW,303,2.0,7.0,66,0.00,,,0.00,Wunderground v.1.15,2013-07-26 19:25:00,
2013-07-26 15:26:00,74.3,63.1,30.06,WNW,303,2.0,7.0,68,0.00,,,0.00,Wunderground v.1.15,2013-07-26 19:26:00,
2013-07-26 15:28:00,74.5,62.8,30.06,NW,317,2.0,7.0,67,0.00,,,0.00,Wunderground v.1.15,2013-07-26 19:28:00,
2013-07-26 15:30:00,74.5,61.5,30.06,North,355,2.0,2.0,64,0.00,,,0.00,Wunderground v.1.15,2013-07-26 19:30:00,
2013-07-26 15:32:00,74.4,60.5,30.06,NW,314,2.0,7.0,62,0.00,,,0.00,Wunderground v.1.15,2013-07-26 19:32:00,
2013-07-26 15:33:00,74.4,61.9,30.06,NW,314,1.0,7.0,65,0.00,,,0.00,Wunderground v.1.15,2013-07-26 19:33:00,
2013-07-26 15:34:00,74.5,62.0,30.06,NW,313,1.0,7.0,65,0.00,,,0.00,Wunderground v.1.15,2013-07-26 19:34:00,
2013-07-26 15:35:00,74.5,61.5,30.06,NW,322,1.0,7.0,64,0.00,,,0.00,Wunderground v.1.15,2013-07-26 19:35:00,
2013-07-26 15:39:00,74.8,61.4,30.06,NNW,330,1.0,7.0,63,0.00,,,0.00,Wunderground v.1.15,2013-07-26 19:39:00,
2013-07-26 15:40:00,74.8,60.9,30.05,WNW,284,1.0,1.0,62,0.00,,,0.00,Wunderground v.1.15,2013-07-26 19:40:00,
2013-07-26 15:42:00,74.8,61.4,30.05,WNW,284,0.0,7.0,63,0.00,,,0.00,Wunderground v.1.15,2013-07-26 19:42:00,
2013-07-26 15:43:00,74.9,61.9,30.05,WNW,284,0.0,7.0,64,0.00,,,0.00,Wunderground v.1.15,2013-07-26 19:43:00,
2013-07-26 15:48:00,75.0,61.5,30.05,WNW,284,0.0,7.0,63,0.00,,,0.00,Wunderground v.1.15,2013-07-26 19:48:00,
2013-07-26 15:49:00,75.0,61.5,30.05,West,279,0.0,7.0,63,0.00,,,0.00,Wunderground v.1.15,2013-07-26 19:49:00,
2013-07-26 15:52:00,75.2,61.3,30.05,West,279,0.0,6.0,62,0.00,,,0.00,Wunderground v.1.15,2013-07-26 19:52:00,
2013-07-26 15:53:00,75.2,62.2,30.05,West,279,0.0,6.0,64,0.00,,,0.00,Wunderground v.1.15,2013-07-26 19:53:00,
2013-07-26 15:54:00,75.3,62.7,30.05,West,281,0.0,6.0,65,0.00,,,0.00,Wunderground v.1.15,2013-07-26 19:54:00,
2013-07-26 15:55:00,75.3,62.3,30.05,NNW,327,0.0,6.0,64,0.00,,,0.00,Wunderground v.1.15,2013-07-26 19:55:00,
2013-07-26 15:57:00,75.5,62.9,30.05,NNW,327,0.0,6.0,65,0.00,,,0.00,Wunderground v.1.15,2013-07-26 19:57:00,
2013-07-26 16:00:00,75.5,61.6,30.05,NNW,327,0.0,6.0,62,0.00,,,0.00,Wunderground v.1.15,2013-07-26 20:00:00,
2013-07-26 16:01:00,75.5,61.6,30.05,NNW,327,0.0,6.0,62,0.00,,,0.00,Wunderground v.1.15,2013-07-26 20:01:00,
2013-07-26 16:03:00,75.6,62.1,30.05,WNW,301,0.0,6.0,63,0.00,,,0.00,Wunderground v.1.15,2013-07-26 20:03:00,
2013-07-26 16:06:00,75.9,63.7,30.05,WNW,301,0.0,6.0,66,0.00,,,0.00,Wunderground v.1.15,2013-07-26 20:06:00,
2013-07-26 16:07:00,75.9,62.8,30.05,WNW,301,0.0,6.0,64,0.00,,,0.00,Wunderground v.1.15,2013-07-26 20:07:00,
2013-07-26 16:09:00,76.0,62.0,30.05,WNW,302,0.0,6.0,62,0.00,,,0.00,Wunderground v.1.15,2013-07-26 20:09:00,
2013-07-26 16:12:00,75.9,62.4,30.05,NW,321,0.0,6.0,63,0.00,,,0.00,Wunderground v.1.15,2013-07-26 20:12:00,
2013-07-26 16:14:00,75.8,63.2,30.05,NW,319,1.0,6.0,65,0.00,,,0.00,Wunderground v.1.15,2013-07-26 20:14:00,
2013-07-26 16:17:00,75.7,62.2,30.05,NW,320,1.0,6.0,63,0.00,,,0.00,Wunderground v.1.15,2013-07-26 20:17:00,
2013-07-26 16:19:00,75.6,61.7,30.05,NNW,327,1.0,6.0,62,0.00,,,0.00,Wunderground v.1.15,2013-07-26 20:19:00,
2013-07-26 16:20:00,75.5,61.6,30.05,NNW,327,1.0,1.0,62,0.00,,,0.00,Wunderground v.1.15,2013-07-26 20:20:00,
2013-07-26 16:23:00,75.6,63.0,30.05,NW,326,0.0,2.0,65,0.00,,,0.00,Wunderground v.1.15,2013-07-26 20:23:00,
2013-07-26 16:26:00,75.7,61.8,30.05,NNW,327,0.0,2.0,62,0.00,,,0.00,Wunderground v.1.15,2013-07-26 20:26:00,
2013-07-26 16:30:00,75.7,60.8,30.04,NNW,336,0.0,2.0,60,0.00,,,0.00,Wunderground v.1.15,2013-07-26 20:30:00,
2013-07-26 16:32:00,75.4,59.6,30.04,East,82,0.0,2.0,58,0.00,,,0.00,Wunderground v.1.15,2013-07-26 20:32:00,
2013-07-26 16:34:00,75.2,60.4,30.04,East,84,0.0,2.0,60,0.00,,,0.00,Wunderground v.1.15,2013-07-26 20:34:00,
2013-07-26 16:36:00,74.9,61.0,30.04,East,80,0.0,2.0,62,0.00,,,0.00,Wunderground v.1.15,2013-07-26 20:36:00,
2013-07-26 16:38:00,75.0,61.5,30.04,East,80,0.0,2.0,63,0.00,,,0.00,Wunderground v.1.15,2013-07-26 20:38:00,
2013-07-26 16:39:00,75.1,61.6,30.04,East,81,0.0,2.0,63,0.00,,,0.00,Wunderground v.1.15,2013-07-26 20:39:00,
2013-07-26 16:40:00,75.2,62.2,30.04,North,360,0.0,2.0,64,0.00,,,0.00,Wunderground v.1.15,2013-07-26 20:40:00,
2013-07-26 16:41:00,75.3,63.2,30.04,North,355,0.0,2.0,66,0.00,,,0.00,Wunderground v.1.15,2013-07-26 20:41:00,
2013-07-26 16:42:00,75.4,62.4,30.04,North,355,0.0,2.0,64,0.00,,,0.00,Wunderground v.1.15,2013-07-26 20:42:00,
2013-07-26 16:44:00,75.6,62.1,30.04,NNW,329,0.0,4.0,63,0.00,,,0.00,Wunderground v.1.15,2013-07-26 20:44:00,
2013-07-26 16:45:00,75.7,61.8,30.04,NW,306,0.0,4.0,62,0.00,,,0.00,Wunderground v.1.15,2013-07-26 20:45:00,
2013-07-26 16:46:00,75.7,62.2,30.04,NNW,340,0.0,4.0,63,0.00,,,0.00,Wunderground v.1.15,2013-07-26 20:46:00,
2013-07-26 16:48:00,75.8,62.3,30.04,NNW,335,0.0,4.0,63,0.00,,,0.00,Wunderground v.1.15,2013-07-26 20:48:00,
2013-07-26 16:49:00,75.8,62.3,30.04,NNW,335,0.0,4.0,63,0.00,,,0.00,Wunderground v.1.15,2013-07-26 20:49:00,
2013-07-26 16:50:00,75.9,62.4,30.04,NNW,335,0.0,4.0,63,0.00,,,0.00,Wunderground v.1.15,2013-07-26 20:50:00,
2013-07-26 16:51:00,76.0,62.9,30.04,NW,311,0.0,4.0,64,0.00,,,0.00,Wunderground v.1.15,2013-07-26 20:51:00,
2013-07-26 16:54:00,76.2,62.7,30.04,NW,319,0.0,4.0,63,0.00,,,0.00,Wunderground v.1.15,2013-07-26 20:54:00,
2013-07-26 16:56:00,76.1,61.2,30.04,NW,319,0.0,4.0,60,0.00,,,0.00,Wunderground v.1.15,2013-07-26 20:56:00,
2013-07-26 17:00:00,75.8,62.3,30.04,WNW,299,0.0,4.0,63,0.00,,,0.00,Wunderground v.1.15,2013-07-26 21:00:00,
2013-07-26 17:01:00,75.9,61.9,30.04,WNW,299,0.0,4.0,62,0.00,,,0.00,Wunderground v.1.15,2013-07-26 21:01:00,
2013-07-26 17:02:00,75.8,61.4,30.04,WNW,298,0.0,4.0,61,0.00,,,0.00,Wunderground v.1.15,2013-07-26 21:02:00,
2013-07-26 17:05:00,75.7,61.3,30.04,WNW,299,0.0,4.0,61,0.00,,,0.00,Wunderground v.1.15,2013-07-26 21:05:00,
2013-07-26 17:07:00,75.7,61.3,30.04,WNW,299,0.0,4.0,61,0.00,,,0.00,Wunderground v.1.15,2013-07-26 21:07:00,
2013-07-26 17:09:00,75.8,61.4,30.04,WNW,299,0.0,4.0,61,0.00,,,0.00,Wunderground v.1.15,2013-07-26 21:09:00,
2013-07-26 17:12:00,75.8,60.9,30.04,NW,320,0.0,4.0,60,0.00,,,0.00,Wunderground v.1.15,2013-07-26 21:12:00,
2013-07-26 17:14:00,75.8,62.8,30.04,NW,306,0.0,4.0,64,0.00,,,0.00,Wunderground v.1.15,2013-07-26 21:14:00,
2013-07-26 17:15:00,75.9,63.3,30.04,NW,309,0.0,4.0,65,0.00,,,0.00,Wunderground v.1.15,2013-07-26 21:15:00,
2013-07-26 17:19:00,75.8,62.3,30.04,NW,307,0.0,4.0,63,0.00,,,0.00,Wunderground v.1.15,2013-07-26 21:19:00,
2013-07-26 17:21:00,76.0,62.9,30.04,NW,308,0.0,3.0,64,0.00,,,0.00,Wunderground v.1.15,2013-07-26 21:21:00,
2013-07-26 17:23:00,75.9,61.0,30.04,NW,307,0.0,3.0,60,0.00,,,0.00,Wunderground v.1.15,2013-07-26 21:23:00,
2013-07-26 17:25:00,76.0,62.9,30.04,NW,308,0.0,3.0,64,0.00,,,0.00,Wunderground v.1.15,2013-07-26 21:25:00,
2013-07-26 17:30:00,75.8,60.9,30.04,NW,314,0.0,3.0,60,0.00,,,0.00,Wunderground v.1.15,2013-07-26 21:30:00,
2013-07-26 17:32:00,75.7,62.2,30.04,NW,314,0.0,3.0,63,0.00,,,0.00,Wunderground v.1.15,2013-07-26 21:32:00,
2013-07-26 17:36:00,75.4,60.5,30.04,NW,317,0.0,3.0,60,0.00,,,0.00,Wunderground v.1.15,2013-07-26 21:36:00,
2013-07-26 17:37:00,75.3,61.8,30.04,NW,317,0.0,3.0,63,0.00,,,0.00,Wunderground v.1.15,2013-07-26 21:37:00,
2013-07-26 17:38:00,75.4,62.4,30.03,NW,316,0.0,3.0,64,0.00,,,0.00,Wunderground v.1.15,2013-07-26 21:38:00,
2013-07-26 17:40:00,75.4,62.8,30.03,NW,316,0.0,3.0,65,0.00,,,0.00,Wunderground v.1.15,2013-07-26 21:40:00,
2013-07-26 17:41:00,75.4,61.9,30.04,NW,315,0.0,3.0,63,0.00,,,0.00,Wunderground v.1.15,2013-07-26 21:41:00,
2013-07-26 17:43:00,75.6,62.6,30.03,NW,315,0.0,3.0,64,0.00,,,0.00,Wunderground v.1.15,2013-07-26 21:43:00,
2013-07-26 17:48:00,75.6,61.7,30.03,NW,317,0.0,3.0,62,0.00,,,0.00,Wunderground v.1.15,2013-07-26 21:48:00,
2013-07-26 17:49:00,75.6,61.7,30.03,NW,317,0.0,3.0,62,0.00,,,0.00,Wunderground v.1.15,2013-07-26 21:49:00,
2013-07-26 17:51:00,75.5,61.1,30.03,NW,317,0.0,1.0,61,0.00,,,0.00,Wunderground v.1.15,2013-07-26 21:51:00,
2013-07-26 17:54:00,75.4,62.4,30.03,NW,319,0.0,1.0,64,0.00,,,0.00,Wunderground v.1.15,2013-07-26 21:54:00,
2013-07-26 17:55:00,75.4,61.9,30.03,NW,318,0.0,1.0,63,0.00,,,0.00,Wunderground v.1.15,2013-07-26 21:55:00,
2013-07-26 17:58:00,75.3,61.8,30.03,NW,319,0.0,1.0,63,0.00,,,0.00,Wunderground v.1.15,2013-07-26 21:58:00,
2013-07-26 17:59:00,75.2,61.7,30.03,NW,319,0.0,1.0,63,0.00,,,0.00,Wunderground v.1.15,2013-07-26 21:59:00,
2013-07-26 18:01:00,75.3,62.3,30.03,NW,318,0.0,1.0,64,0.00,,,0.00,Wunderground v.1.15,2013-07-26 22:01:00,
2013-07-26 18:04:00,75.5,62.5,30.03,NW,319,0.0,1.0,64,0.00,,,0.00,Wunderground v.1.15,2013-07-26 22:04:00,
2013-07-26 18:05:00,75.6,62.6,30.03,NW,318,0.0,1.0,64,0.00,,,0.00,Wunderground v.1.15,2013-07-26 22:05:00,
2013-07-26 18:07:00,75.9,63.3,30.03,NW,319,0.0,1.0,65,0.00,,,0.00,Wunderground v.1.15,2013-07-26 22:07:00,
2013-07-26 18:10:00,76.2,63.1,30.03,NW,318,0.0,1.0,64,0.00,,,0.00,Wunderground v.1.15,2013-07-26 22:10:00,
2013-07-26 18:12:00,76.4,62.9,30.03,NW,319,0.0,1.0,63,0.00,,,0.00,Wunderground v.1.15,2013-07-26 22:12:00,
2013-07-26 18:13:00,76.5,63.9,30.03,NW,318,0.0,2.0,65,0.00,,,0.00,Wunderground v.1.15,2013-07-26 22:13:00,
2013-07-26 18:15:00,76.6,62.6,30.03,NW,318,0.0,2.0,62,0.00,,,0.00,Wunderground v.1.15,2013-07-26 22:15:00,
2013-07-26 18:17:00,76.8,63.2,30.03,NW,326,0.0,2.0,63,0.00,,,0.00,Wunderground v.1.15,2013-07-26 22:17:00,
2013-07-26 18:18:00,76.7,61.8,30.03,North,350,0.0,3.0,60,0.00,,,0.00,Wunderground v.1.15,2013-07-26 22:18:00,
2013-07-26 18:19:00,76.4,62.0,30.03,North,350,0.0,3.0,61,0.00,,,0.00,Wunderground v.1.15,2013-07-26 22:19:00,
2013-07-26 18:21:00,76.1,62.1,30.03,North,350,0.0,2.0,62,0.00,,,0.00,Wunderground v.1.15,2013-07-26 22:21:00,
2013-07-26 18:22:00,75.9,62.8,30.03,North,350,0.0,2.0,64,0.00,,,0.00,Wunderground v.1.15,2013-07-26 22:22:00,
2013-07-26 18:24:00,75.7,62.2,30.03,North,350,0.0,2.0,63,0.00,,,0.00,Wunderground v.1.15,2013-07-26 22:24:00,
2013-07-26 18:25:00,75.6,62.1,30.03,North,350,0.0,2.0,63,0.00,,,0.00,Wunderground v.1.15,2013-07-26 22:25:00,
2013-07-26 18:27:00,75.6,62.1,30.03,North,350,0.0,2.0,63,0.00,,,0.00,Wunderground v.1.15,2013-07-26 22:27:00,
2013-07-26 18:28:00,75.6,62.1,30.03,North,350,0.0,2.0,63,0.00,,,0.00,Wunderground v.1.15,2013-07-26 22:28:00,
2013-07-26 18:30:00,75.6,62.1,30.03,North,350,0.0,2.0,63,0.00,,,0.00,Wunderground v.1.15,2013-07-26 22:30:00,
2013-07-26 18:35:00,75.9,62.8,30.04,North,349,0.0,2.0,64,0.00,,,0.00,Wunderground v.1.15,2013-07-26 22:35:00,
2013-07-26 18:36:00,76.0,63.4,30.04,North,349,0.0,2.0,65,0.00,,,0.00,Wunderground v.1.15,2013-07-26 22:36:00,
2013-07-26 18:37:00,76.0,62.9,30.04,North,349,0.0,2.0,64,0.00,,,0.00,Wunderground v.1.15,2013-07-26 22:37:00,
2013-07-26 18:38:00,76.0,63.4,30.03,North,349,0.0,2.0,65,0.00,,,0.00,Wunderground v.1.15,2013-07-26 22:38:00,
2013-07-26 18:40:00,76.0,63.4,30.03,North,349,0.0,2.0,65,0.00,,,0.00,Wunderground v.1.15,2013-07-26 22:40:00,
2013-07-26 18:42:00,76.0,62.9,30.03,North,349,0.0,2.0,64,0.00,,,0.00,Wunderground v.1.15,2013-07-26 22:42:00,
2013-07-26 18:43:00,76.0,62.9,30.03,North,349,0.0,4.0,64,0.00,,,0.00,Wunderground v.1.15,2013-07-26 22:43:00,
2013-07-26 18:44:00,76.0,62.9,30.03,North,349,0.0,4.0,64,0.00,,,0.00,Wunderground v.1.15,2013-07-26 22:44:00,
2013-07-26 18:45:00,76.0,62.9,30.03,North,349,0.0,4.0,64,0.00,,,0.00,Wunderground v.1.15,2013-07-26 22:45:00,
2013-07-26 18:49:00,75.9,63.3,30.03,North,349,0.0,4.0,65,0.00,,,0.00,Wunderground v.1.15,2013-07-26 22:49:00,
2013-07-26 18:51:00,75.8,62.3,30.03,NNW,348,0.0,4.0,63,0.00,,,0.00,Wunderground v.1.15,2013-07-26 22:51:00,
2013-07-26 18:52:00,75.7,62.2,30.03,NNW,348,0.0,4.0,63,0.00,,,0.00,Wunderground v.1.15,2013-07-26 22:52:00,
2013-07-26 18:53:00,75.6,62.6,30.03,NNW,348,0.0,4.0,64,0.00,,,0.00,Wunderground v.1.15,2013-07-26 22:53:00,
2013-07-26 18:56:00,75.5,62.9,30.03,NNW,348,0.0,4.0,65,0.00,,,0.00,Wunderground v.1.15,2013-07-26 22:56:00,
2013-07-26 18:57:00,75.5,63.3,30.03,NNW,348,0.0,4.0,66,0.00,,,0.00,Wunderground v.1.15,2013-07-26 22:57:00,
2013-07-26 18:59:00,75.6,63.4,30.03,NNW,348,0.0,4.0,66,0.00,,,0.00,Wunderground v.1.15,2013-07-26 22:59:00,
2013-07-26 19:02:00,75.6,63.9,30.03,NNW,348,0.0,4.0,67,0.00,,,0.00,Wunderground v.1.15,2013-07-26 23:02:00,
2013-07-26 19:04:00,75.6,63.0,30.03,NNW,348,0.0,4.0,65,0.00,,,0.00,Wunderground v.1.15,2013-07-26 23:04:00,
2013-07-26 19:06:00,75.6,63.0,30.03,NNW,348,0.0,4.0,65,0.00,,,0.00,Wunderground v.1.15,2013-07-26 23:06:00,
2013-07-26 19:08:00,75.6,63.4,30.03,NNW,348,0.0,4.0,66,0.00,,,0.00,Wunderground v.1.15,2013-07-26 23:08:00,
2013-07-26 19:10:00,75.6,63.0,30.03,NNW,348,0.0,4.0,65,0.00,,,0.00,Wunderground v.1.15,2013-07-26 23:10:00,
2013-07-26 19:11:00,75.7,63.5,30.03,NNW,348,0.0,4.0,66,0.00,,,0.00,Wunderground v.1.15,2013-07-26 23:11:00,
2013-07-26 19:14:00,75.8,63.2,30.03,NNW,348,0.0,4.0,65,0.00,,,0.00,Wunderground v.1.15,2013-07-26 23:14:00,
2013-07-26 19:15:00,75.9,63.3,30.03,NNW,348,0.0,4.0,65,0.00,,,0.00,Wunderground v.1.15,2013-07-26 23:15:00,
2013-07-26 19:20:00,76.1,63.0,30.03,NNW,348,0.0,3.0,64,0.00,,,0.00,Wunderground v.1.15,2013-07-26 23:20:00,
2013-07-26 19:21:00,76.0,62.9,30.03,NNW,348,0.0,3.0,64,0.00,,,0.00,Wunderground v.1.15,2013-07-26 23:21:00,
2013-07-26 19:22:00,76.0,63.4,30.03,NNW,348,0.0,3.0,65,0.00,,,0.00,Wunderground v.1.15,2013-07-26 23:22:00,
2013-07-26 19:24:00,75.9,63.3,30.03,NNW,348,0.0,3.0,65,0.00,,,0.00,Wunderground v.1.15,2013-07-26 23:24:00,
2013-07-26 19:29:00,75.6,63.9,30.03,NNW,348,0.0,3.0,67,0.00,,,0.00,Wunderground v.1.15,2013-07-26 23:29:00,
2013-07-26 19:30:00,75.4,64.1,30.03,NNW,348,0.0,3.0,68,0.00,,,0.00,Wunderground v.1.15,2013-07-26 23:30:00,
2013-07-26 19:33:00,74.8,63.5,30.03,NNW,348,0.0,3.0,68,0.00,,,0.00,Wunderground v.1.15,2013-07-26 23:33:00,
2013-07-26 19:34:00,74.4,63.6,30.03,NNW,348,0.0,3.0,69,0.00,,,0.00,Wunderground v.1.15,2013-07-26 23:34:00,
2013-07-26 19:37:00,73.9,63.1,30.03,NNW,348,0.0,3.0,69,0.00,,,0.00,Wunderground v.1.15,2013-07-26 23:37:00,
2013-07-26 19:40:00,73.1,62.7,30.03,NNW,348,0.0,3.0,70,0.00,,,0.00,Wunderground v.1.15,2013-07-26 23:40:00,
2013-07-26 19:41:00,73.0,62.6,30.03,NNW,348,0.0,3.0,70,0.00,,,0.00,Wunderground v.1.15,2013-07-26 23:41:00,
2013-07-26 19:43:00,72.6,62.7,30.03,NNW,348,0.0,3.0,71,0.00,,,0.00,Wunderground v.1.15,2013-07-26 23:43:00,
2013-07-26 19:46:00,72.1,62.6,30.03,NNW,348,0.0,3.0,72,0.00,,,0.00,Wunderground v.1.15,2013-07-26 23:46:00,
2013-07-26 19:47:00,71.9,62.4,30.03,NNW,348,0.0,3.0,72,0.00,,,0.00,Wunderground v.1.15,2013-07-26 23:47:00,
2013-07-26 19:48:00,71.8,62.7,30.03,NNW,348,0.0,3.0,73,0.00,,,0.00,Wunderground v.1.15,2013-07-26 23:48:00,
2013-07-26 19:51:00,71.5,62.8,30.03,NNW,348,0.0,0.0,74,0.00,,,0.00,Wunderground v.1.15,2013-07-26 23:51:00,
2013-07-26 19:52:00,71.3,62.6,30.03,NNW,348,0.0,0.0,74,0.00,,,0.00,Wunderground v.1.15,2013-07-26 23:52:00,
2013-07-26 19:55:00,70.9,62.6,30.03,NNW,348,0.0,0.0,75,0.00,,,0.00,Wunderground v.1.15,2013-07-26 23:55:00,
2013-07-26 19:56:00,70.7,62.4,30.03,NNW,348,0.0,0.0,75,0.00,,,0.00,Wunderground v.1.15,2013-07-26 23:56:00,
2013-07-26 19:58:00,70.5,62.2,30.03,NNW,348,0.0,0.0,75,0.00,,,0.00,Wunderground v.1.15,2013-07-26 23:58:00,
2013-07-26 19:59:00,70.3,62.0,30.03,NNW,348,0.0,0.0,75,0.00,,,0.00,Wunderground v.1.15,2013-07-26 23:59:00,
2013-07-26 20:03:00,69.9,61.6,30.03,NNW,348,0.0,0.0,75,0.00,,,0.00,Wunderground v.1.15,2013-07-27 00:03:00,
2013-07-26 20:05:00,69.7,61.4,30.03,North,349,0.0,0.0,75,0.00,,,0.00,Wunderground v.1.15,2013-07-27 00:05:00,
2013-07-26 20:06:00,69.6,61.3,30.03,North,349,0.0,0.0,75,0.00,,,0.00,Wunderground v.1.15,2013-07-27 00:06:00,
2013-07-26 20:10:00,69.2,60.9,30.03,North,349,0.0,0.0,75,0.00,,,0.00,Wunderground v.1.15,2013-07-27 00:10:00,
2013-07-26 20:11:00,69.0,60.7,30.03,North,349,0.0,0.0,75,0.00,,,0.00,Wunderground v.1.15,2013-07-27 00:11:00,
2013-07-26 20:12:00,68.9,61.0,30.03,North,349,0.0,0.0,76,0.00,,,0.00,Wunderground v.1.15,2013-07-27 00:12:00,
2013-07-26 20:14:00,68.6,60.7,30.03,North,349,0.0,0.0,76,0.00,,,0.00,Wunderground v.1.15,2013-07-27 00:14:00,
2013-07-26 20:15:00,68.4,60.5,30.03,North,349,0.0,0.0,76,0.00,,,0.00,Wunderground v.1.15,2013-07-27 00:15:00,
2013-07-26 20:16:00,68.3,60.4,30.03,North,349,0.0,0.0,76,0.00,,,0.00,Wunderground v.1.15,2013-07-27 00:16:00,
2013-07-26 20:18:00,68.1,60.2,30.03,North,349,0.0,0.0,76,0.00,,,0.00,Wunderground v.1.15,2013-07-27 00:18:00,
2013-07-26 20:19:00,68.0,60.2,30.03,North,349,0.0,0.0,76,0.00,,,0.00,Wunderground v.1.15,2013-07-27 00:19:00,
2013-07-26 20:22:00,67.8,60.3,30.03,North,349,0.0,2.0,77,0.00,,,0.00,Wunderground v.1.15,2013-07-27 00:22:00,
2013-07-26 20:24:00,67.7,59.9,30.03,North,349,1.0,2.0,76,0.00,,,0.00,Wunderground v.1.15,2013-07-27 00:24:00,
2013-07-26 20:25:00,67.6,60.1,30.03,North,349,1.0,2.0,77,0.00,,,0.00,Wunderground v.1.15,2013-07-27 00:25:00,
2013-07-26 20:27:00,67.4,59.6,30.03,North,349,1.0,2.0,76,0.00,,,0.00,Wunderground v.1.15,2013-07-27 00:27:00,
2013-07-26 20:28:00,67.3,59.5,30.03,North,349,1.0,2.0,76,0.00,,,0.00,Wunderground v.1.15,2013-07-27 00:28:00,
2013-07-26 20:30:00,67.2,59.4,30.03,North,349,1.0,1.0,76,0.00,,,0.00,Wunderground v.1.15,2013-07-27 00:30:00,
2013-07-26 20:32:00,67.1,59.3,30.03,North,349,1.0,1.0,76,0.00,,,0.00,Wunderground v.1.15,2013-07-27 00:32:00,
2013-07-26 20:33:00,67.0,59.2,30.03,North,349,1.0,1.0,76,0.00,,,0.00,Wunderground v.1.15,2013-07-27 00:33:00,
2013-07-26 20:35:00,66.9,59.1,30.03,North,349,1.0,1.0,76,0.00,,,0.00,Wunderground v.1.15,2013-07-27 00:35:00,
2013-07-26 20:37:00,66.9,59.5,30.03,North,350,0.0,1.0,77,0.00,,,0.00,Wunderground v.1.15,2013-07-27 00:37:00,
2013-07-26 20:41:00,66.8,59.0,30.03,North,351,0.0,2.0,76,0.00,,,0.00,Wunderground v.1.15,2013-07-27 00:41:00,
2013-07-26 20:44:00,66.6,58.8,30.03,North,355,1.0,3.0,76,0.00,,,0.00,Wunderground v.1.15,2013-07-27 00:44:00,
2013-07-26 20:45:00,66.6,59.2,30.03,North,355,1.0,3.0,77,0.00,,,0.00,Wunderground v.1.15,2013-07-27 00:45:00,
2013-07-26 20:46:00,66.5,59.1,30.03,North,355,1.0,3.0,77,0.00,,,0.00,Wunderground v.1.15,2013-07-27 00:46:00,
2013-07-26 20:47:00,66.5,59.1,30.03,North,355,1.0,3.0,77,0.00,,,0.00,Wunderground v.1.15,2013-07-27 00:47:00,
2013-07-26 20:51:00,66.5,59.1,30.03,North,355,1.0,3.0,77,0.00,,,0.00,Wunderground v.1.15,2013-07-27 00:51:00,
2013-07-26 20:52:00,66.5,58.7,30.03,North,355,0.0,3.0,76,0.00,,,0.00,Wunderground v.1.15,2013-07-27 00:52:00,
2013-07-26 20:54:00,66.5,58.7,30.03,North,355,0.0,3.0,76,0.00,,,0.00,Wunderground v.1.15,2013-07-27 00:54:00,
2013-07-26 20:56:00,66.5,59.1,30.03,North,355,0.0,3.0,77,0.00,,,0.00,Wunderground v.1.15,2013-07-27 00:56:00,
2013-07-26 20:57:00,66.5,59.1,30.04,North,355,0.0,3.0,77,0.00,,,0.00,Wunderground v.1.15,2013-07-27 00:57:00,
2013-07-26 21:01:00,66.4,59.0,30.04,North,355,0.0,3.0,77,0.00,,,0.00,Wunderground v.1.15,2013-07-27 01:01:00,
2013-07-26 21:02:00,66.4,58.6,30.04,North,355,0.0,3.0,76,0.00,,,0.00,Wunderground v.1.15,2013-07-27 01:02:00,
2013-07-26 21:04:00,66.3,58.5,30.04,North,355,0.0,3.0,76,0.00,,,0.00,Wunderground v.1.15,2013-07-27 01:04:00,
2013-07-26 21:07:00,66.3,58.5,30.03,North,355,0.0,3.0,76,0.00,,,0.00,Wunderground v.1.15,2013-07-27 01:07:00,
2013-07-26 21:09:00,66.3,58.5,30.03,North,355,0.0,3.0,76,0.00,,,0.00,Wunderground v.1.15,2013-07-27 01:09:00,
2013-07-26 21:10:00,66.3,58.5,30.03,North,355,0.0,3.0,76,0.00,,,0.00,Wunderground v.1.15,2013-07-27 01:10:00,
2013-07-26 21:11:00,66.3,58.5,30.04,North,355,0.0,3.0,76,0.00,,,0.00,Wunderground v.1.15,2013-07-27 01:11:00,
2013-07-26 21:16:00,66.1,58.3,30.04,North,355,0.0,3.0,76,0.00,,,0.00,Wunderground v.1.15,2013-07-27 01:16:00,
2013-07-26 21:17:00,66.1,58.3,30.04,North,355,0.0,3.0,76,0.00,,,0.00,Wunderground v.1.15,2013-07-27 01:17:00,
2013-07-26 21:18:00,66.1,58.3,30.04,North,355,0.0,3.0,76,0.00,,,0.00,Wunderground v.1.15,2013-07-27 01:18:00,
2013-07-26 21:21:00,66.1,58.3,30.04,North,355,0.0,3.0,76,0.00,,,0.00,Wunderground v.1.15,2013-07-27 01:21:00,
2013-07-26 21:24:00,66.1,58.3,30.04,North,355,0.0,3.0,76,0.00,,,0.00,Wunderground v.1.15,2013-07-27 01:24:00,
2013-07-26 21:26:00,66.1,58.3,30.04,North,355,0.0,3.0,76,0.00,,,0.00,Wunderground v.1.15,2013-07-27 01:26:00,
2013-07-26 21:29:00,66.1,58.3,30.04,North,355,0.0,3.0,76,0.00,,,0.00,Wunderground v.1.15,2013-07-27 01:29:00,
2013-07-26 21:31:00,66.1,58.3,30.04,North,355,0.0,3.0,76,0.00,,,0.00,Wunderground v.1.15,2013-07-27 01:31:00,
2013-07-26 21:32:00,66.1,58.3,30.04,North,355,0.0,3.0,76,0.00,,,0.00,Wunderground v.1.15,2013-07-27 01:32:00,
2013-07-26 21:34:00,66.0,58.2,30.04,North,355,0.0,3.0,76,0.00,,,0.00,Wunderground v.1.15,2013-07-27 01:34:00,
2013-07-26 21:37:00,66.0,58.2,30.04,North,355,0.0,3.0,76,0.00,,,0.00,Wunderground v.1.15,2013-07-27 01:37:00,
2013-07-26 21:38:00,66.0,58.2,30.04,North,355,1.0,3.0,76,0.00,,,0.00,Wunderground v.1.15,2013-07-27 01:38:00,
2013-07-26 21:40:00,65.9,58.1,30.04,North,355,1.0,1.0,76,0.00,,,0.00,Wunderground v.1.15,2013-07-27 01:40:00,
2013-07-26 21:44:00,65.9,58.1,30.04,North,355,1.0,3.0,76,0.00,,,0.00,Wunderground v.1.15,2013-07-27 01:44:00,
2013-07-26 21:45:00,65.9,58.1,30.04,North,355,1.0,3.0,76,0.00,,,0.00,Wunderground v.1.15,2013-07-27 01:45:00,
2013-07-26 21:46:00,65.9,58.1,30.04,North,355,1.0,3.0,76,0.00,,,0.00,Wunderground v.1.15,2013-07-27 01:46:00,
2013-07-26 21:47:00,65.9,58.1,30.04,North,355,1.0,3.0,76,0.00,,,0.00,Wunderground v.1.15,2013-07-27 01:47:00,
2013-07-26 21:52:00,65.8,58.0,30.04,North,355,0.0,3.0,76,0.00,,,0.00,Wunderground v.1.15,2013-07-27 01:52:00,
2013-07-26 21:55:00,65.8,58.0,30.05,North,355,0.0,3.0,76,0.00,,,0.00,Wunderground v.1.15,2013-07-27 01:55:00,
2013-07-26 21:56:00,65.8,58.0,30.05,North,355,0.0,3.0,76,0.00,,,0.00,Wunderground v.1.15,2013-07-27 01:56:00,
2013-07-26 21:57:00,65.8,58.0,30.05,North,355,0.0,3.0,76,0.00,,,0.00,Wunderground v.1.15,2013-07-27 01:57:00,
2013-07-26 21:59:00,65.8,58.0,30.05,North,355,0.0,3.0,76,0.00,,,0.00,Wunderground v.1.15,2013-07-27 01:59:00,
2013-07-26 22:00:00,65.7,57.6,30.05,North,355,0.0,3.0,75,0.00,,,0.00,Wunderground v.1.15,2013-07-27 02:00:00,
2013-07-26 22:01:00,65.8,58.0,30.05,North,355,0.0,3.0,76,0.00,,,0.00,Wunderground v.1.15,2013-07-27 02:01:00,
2013-07-26 22:04:00,65.7,57.9,30.05,North,355,0.0,3.0,76,0.00,,,0.00,Wunderground v.1.15,2013-07-27 02:04:00,
2013-07-26 22:05:00,65.7,57.9,30.05,North,355,0.0,3.0,76,0.00,,,0.00,Wunderground v.1.15,2013-07-27 02:05:00,
2013-07-26 22:07:00,65.8,58.0,30.05,North,355,0.0,3.0,76,0.00,,,0.00,Wunderground v.1.15,2013-07-27 02:07:00,
2013-07-26 22:08:00,65.8,58.0,30.05,North,355,0.0,3.0,76,0.00,,,0.00,Wunderground v.1.15,2013-07-27 02:08:00,
2013-07-26 22:10:00,65.8,57.7,30.05,North,355,0.0,3.0,75,0.00,,,0.00,Wunderground v.1.15,2013-07-27 02:10:00,
2013-07-26 22:12:00,65.8,57.7,30.05,North,355,0.0,3.0,75,0.00,,,0.00,Wunderground v.1.15,2013-07-27 02:12:00,
2013-07-26 22:13:00,65.8,57.7,30.05,North,355,0.0,3.0,75,0.00,,,0.00,Wunderground v.1.15,2013-07-27 02:13:00,
2013-07-26 22:14:00,65.8,57.7,30.05,North,355,0.0,3.0,75,0.00,,,0.00,Wunderground v.1.15,2013-07-27 02:14:00,
2013-07-26 22:19:00,65.7,57.6,30.05,North,355,0.0,3.0,75,0.00,,,0.00,Wunderground v.1.15,2013-07-27 02:19:00,
2013-07-26 22:20:00,65.7,57.6,30.05,North,355,0.0,3.0,75,0.00,,,0.00,Wunderground v.1.15,2013-07-27 02:20:00,
2013-07-26 22:21:00,65.7,57.6,30.05,North,355,0.0,3.0,75,0.00,,,0.00,Wunderground v.1.15,2013-07-27 02:21:00,
2013-07-26 22:24:00,65.8,57.7,30.05,North,355,0.0,3.0,75,0.00,,,0.00,Wunderground v.1.15,2013-07-27 02:24:00,
2013-07-26 22:26:00,65.8,57.7,30.05,North,355,0.0,3.0,75,0.00,,,0.00,Wunderground v.1.15,2013-07-27 02:26:00,
2013-07-26 22:27:00,65.8,57.7,30.05,North,355,0.0,3.0,75,0.00,,,0.00,Wunderground v.1.15,2013-07-27 02:27:00,
2013-07-26 22:29:00,65.8,57.7,30.05,North,355,0.0,3.0,75,0.00,,,0.00,Wunderground v.1.15,2013-07-27 02:29:00,
2013-07-26 22:31:00,65.8,58.0,30.05,North,355,0.0,3.0,76,0.00,,,0.00,Wunderground v.1.15,2013-07-27 02:31:00,
2013-07-26 22:32:00,65.8,57.7,30.05,North,355,0.0,3.0,75,0.00,,,0.00,Wunderground v.1.15,2013-07-27 02:32:00,
2013-07-26 22:33:00,65.8,57.7,30.05,North,355,0.0,3.0,75,0.00,,,0.00,Wunderground v.1.15,2013-07-27 02:33:00,
2013-07-26 22:35:00,65.8,57.7,30.05,North,355,0.0,3.0,75,0.00,,,0.00,Wunderground v.1.15,2013-07-27 02:35:00,
2013-07-26 22:37:00,65.8,57.7,30.05,North,355,0.0,3.0,75,0.00,,,0.00,Wunderground v.1.15,2013-07-27 02:37:00,
2013-07-26 22:38:00,65.8,57.7,30.05,North,355,0.0,3.0,75,0.00,,,0.00,Wunderground v.1.15,2013-07-27 02:38:00,
2013-07-26 22:39:00,65.8,57.7,30.05,North,355,0.0,3.0,75,0.00,,,0.00,Wunderground v.1.15,2013-07-27 02:39:00,
2013-07-26 22:42:00,65.9,57.7,30.05,North,355,0.0,3.0,75,0.00,,,0.00,Wunderground v.1.15,2013-07-27 02:42:00,
2013-07-26 22:45:00,65.9,57.7,30.05,North,355,0.0,3.0,75,0.00,,,0.00,Wunderground v.1.15,2013-07-27 02:45:00,
2013-07-26 22:47:00,66.0,57.8,30.05,North,355,0.0,3.0,75,0.00,,,0.00,Wunderground v.1.15,2013-07-27 02:47:00,
2013-07-26 22:48:00,66.0,57.8,30.05,North,355,0.0,3.0,75,0.00,,,0.00,Wunderground v.1.15,2013-07-27 02:48:00,
2013-07-26 22:50:00,66.1,57.9,30.05,North,355,0.0,0.0,75,0.00,,,0.00,Wunderground v.1.15,2013-07-27 02:50:00,
2013-07-26 22:51:00,66.1,57.9,30.05,North,355,0.0,0.0,75,0.00,,,0.00,Wunderground v.1.15,2013-07-27 02:51:00,
2013-07-26 22:54:00,66.1,57.9,30.05,North,355,0.0,0.0,75,0.00,,,0.00,Wunderground v.1.15,2013-07-27 02:54:00,
2013-07-26 22:56:00,66.1,57.9,30.05,North,355,0.0,0.0,75,0.00,,,0.00,Wunderground v.1.15,2013-07-27 02:56:00,
2013-07-26 22:58:00,66.1,57.9,30.05,North,355,0.0,0.0,75,0.00,,,0.00,Wunderground v.1.15,2013-07-27 02:58:00,
2013-07-26 23:00:00,66.2,58.0,30.05,North,355,0.0,0.0,75,0.00,,,0.00,Wunderground v.1.15,2013-07-27 03:00:00,
2013-07-26 23:01:00,66.2,58.0,30.05,North,355,0.0,0.0,75,0.00,,,0.00,Wunderground v.1.15,2013-07-27 03:01:00,
2013-07-26 23:02:00,66.2,58.0,30.05,North,355,0.0,0.0,75,0.00,,,0.00,Wunderground v.1.15,2013-07-27 03:02:00,
2013-07-26 23:05:00,66.2,58.4,30.05,North,355,0.0,0.0,76,0.00,,,0.00,Wunderground v.1.15,2013-07-27 03:05:00,
2013-07-26 23:08:00,66.3,58.5,30.05,North,355,0.0,0.0,76,0.00,,,0.00,Wunderground v.1.15,2013-07-27 03:08:00,
2013-07-26 23:10:00,66.3,58.5,30.05,North,355,0.0,0.0,76,0.00,,,0.00,Wunderground v.1.15,2013-07-27 03:10:00,
2013-07-26 23:11:00,66.3,58.5,30.05,North,355,0.0,0.0,76,0.00,,,0.00,Wunderground v.1.15,2013-07-27 03:11:00,
2013-07-26 23:13:00,66.4,58.6,30.05,North,355,0.0,0.0,76,0.00,,,0.00,Wunderground v.1.15,2013-07-27 03:13:00,
2013-07-26 23:17:00,66.5,58.7,30.05,North,355,0.0,0.0,76,0.00,,,0.00,Wunderground v.1.15,2013-07-27 03:17:00,
2013-07-26 23:18:00,66.5,59.1,30.05,North,355,0.0,0.0,77,0.00,,,0.00,Wunderground v.1.15,2013-07-27 03:18:00,
2013-07-26 23:19:00,66.5,59.1,30.05,North,355,0.0,0.0,77,0.00,,,0.00,Wunderground v.1.15,2013-07-27 03:19:00,
2013-07-26 23:20:00,66.5,58.7,30.05,North,355,0.0,0.0,76,0.00,,,0.00,Wunderground v.1.15,2013-07-27 03:20:00,
2013-07-26 23:24:00,66.6,59.2,30.05,North,355,0.0,0.0,77,0.00,,,0.00,Wunderground v.1.15,2013-07-27 03:24:00,
2013-07-26 23:26:00,66.6,59.2,30.05,North,355,0.0,0.0,77,0.00,,,0.00,Wunderground v.1.15,2013-07-27 03:26:00,
2013-07-26 23:27:00,66.7,59.3,30.05,North,355,0.0,0.0,77,0.00,,,0.00,Wunderground v.1.15,2013-07-27 03:27:00,
2013-07-26 23:31:00,66.9,59.1,30.06,North,355,0.0,0.0,76,0.00,,,0.00,Wunderground v.1.15,2013-07-27 03:31:00,
2013-07-26 23:33:00,66.9,59.1,30.05,North,355,0.0,0.0,76,0.00,,,0.00,Wunderground v.1.15,2013-07-27 03:33:00,
2013-07-26 23:34:00,66.8,59.0,30.05,North,355,0.0,0.0,76,0.00,,,0.00,Wunderground v.1.15,2013-07-27 03:34:00,
2013-07-26 23:37:00,66.8,59.0,30.05,North,355,0.0,0.0,76,0.00,,,0.00,Wunderground v.1.15,2013-07-27 03:37:00,
2013-07-26 23:40:00,66.8,59.4,30.05,North,355,0.0,0.0,77,0.00,,,0.00,Wunderground v.1.15,2013-07-27 03:40:00,
2013-07-26 23:41:00,66.8,59.0,30.05,North,355,0.0,0.0,76,0.00,,,0.00,Wunderground v.1.15,2013-07-27 03:41:00,
2013-07-26 23:43:00,66.8,59.0,30.05,North,355,0.0,0.0,76,0.00,,,0.00,Wunderground v.1.15,2013-07-27 03:43:00,
2013-07-26 23:46:00,66.9,59.1,30.05,North,355,0.0,0.0,76,0.00,,,0.00,Wunderground v.1.15,2013-07-27 03:46:00,
2013-07-26 23:47:00,66.9,59.1,30.05,North,355,0.0,0.0,76,0.00,,,0.00,Wunderground v.1.15,2013-07-27 03:47:00,
2013-07-26 23:50:00,66.8,59.0,30.06,North,355,0.0,0.0,76,0.00,,,0.00,Wunderground v.1.15,2013-07-27 03:50:00,
2013-07-26 23:52:00,66.8,59.4,30.06,NE,53,0.0,0.0,77,0.00,,,0.00,Wunderground v.1.15,2013-07-27 03:52:00,
2013-07-26 23:54:00,66.8,59.4,30.06,NE,53,0.0,0.0,77,0.00,,,0.00,Wunderground v.1.15,2013-07-27 03:54:00,
2013-07-26 23:57:00,66.7,59.3,30.06,ENE,67,0.0,1.0,77,0.00,,,0.00,Wunderground v.1.15,2013-07-27 03:57:00,